Observation data for Coyanosa on 02/14/2018      Previous  Date  Next       Current Mesonet Observations  Soil Data  Daily Summary Page  Observations in Plain Language
KCO1 140600Z 08003KT 11/02 A3024 RMK A01 T01060016  RH  054%=      5-min Rain = 0
KCO1 140601Z 09004KT 11/02 A3024 RMK A01 T01060016  RH  054%=      5-min Rain = 0
KCO1 140602Z 09003KT 11/02 A3024 RMK A01 T01050016  RH  054%=      5-min Rain = 0
KCO1 140603Z 09003KT 11/02 A3024 RMK A01 T01050017  RH  054%=      5-min Rain = 0
KCO1 140604Z 09003KT 11/02 A3024 RMK A01 T01050017  RH  054%=      5-min Rain = 0
KCO1 140605Z 08003KT 11/02 A3024 RMK A01 T01050017  RH  054%=      5-min Rain = 0
KCO1 140606Z 08004KT 11/02 A3024 RMK A01 T01050017  RH  054%=      5-min Rain = 0
KCO1 140607Z 08004KT 11/02 A3024 RMK A01 T01050018  RH  055%=      5-min Rain = 0
KCO1 140608Z 08004KT 11/02 A3024 RMK A01 T01050018  RH  055%=      5-min Rain = 0
KCO1 140609Z 09003KT 11/02 A3024 RMK A01 T01050018  RH  055%=      5-min Rain = 0
KCO1 140610Z 09003KT 11/02 A3024 RMK A01 T01050018  RH  055%=      5-min Rain = 0
KCO1 140611Z 09003KT 11/02 A3024 RMK A01 T01050018  RH  055%=      5-min Rain = 0
KCO1 140612Z 09003KT 11/02 A3024 RMK A01 T01050018  RH  055%=      5-min Rain = 0
KCO1 140613Z 08002KT 11/02 A3024 RMK A01 T01050018  RH  055%=      5-min Rain = 0
KCO1 140614Z 07003KT 11/02 A3024 RMK A01 T01050018  RH  055%=      5-min Rain = 0
KCO1 140615Z 06003KT 11/02 A3024 RMK A01 T01060018  RH  055%=      5-min Rain = 0
KCO1 140616Z 06003KT 11/02 A3024 RMK A01 T01060018  RH  055%=      5-min Rain = 0
KCO1 140617Z 06003KT 11/02 A3024 RMK A01 T01060018  RH  055%=      5-min Rain = 0
KCO1 140618Z 07004KT 11/02 A3024 RMK A01 T01060018  RH  055%=      5-min Rain = 0
KCO1 140619Z 07004KT 11/02 A3024 RMK A01 T01050018  RH  055%=      5-min Rain = 0
KCO1 140620Z 07004KT 11/02 A3024 RMK A01 T01050018  RH  055%=      5-min Rain = 0
KCO1 140621Z 07004KT 11/02 A3024 RMK A01 T01050018  RH  055%=      5-min Rain = 0
KCO1 140622Z 07003KT 11/02 A3024 RMK A01 T01050018  RH  055%=      5-min Rain = 0
KCO1 140623Z 07003KT 11/02 A3024 RMK A01 T01050018  RH  055%=      5-min Rain = 0
KCO1 140624Z 07003KT 11/02 A3024 RMK A01 T01050018  RH  055%=      5-min Rain = 0
KCO1 140625Z 07003KT 11/02 A3024 RMK A01 T01050018  RH  055%=      5-min Rain = 0
KCO1 140626Z 07003KT 11/02 A3024 RMK A01 T01050018  RH  055%=      5-min Rain = 0
KCO1 140627Z 08003KT 11/02 A3024 RMK A01 T01050018  RH  055%=      5-min Rain = 0
KCO1 140628Z 08003KT 11/02 A3024 RMK A01 T01050018  RH  055%=      5-min Rain = 0
KCO1 140629Z 08003KT 11/02 A3024 RMK A01 T01050018  RH  055%=      5-min Rain = 0
KCO1 140630Z 07003KT 11/02 A3024 RMK A01 T01050018  RH  055%=      5-min Rain = 0
KCO1 140631Z 07003KT 11/02 A3024 RMK A01 T01050019  RH  055%=      5-min Rain = 0
KCO1 140632Z 07004KT 11/02 A3024 RMK A01 T01050018  RH  055%=      5-min Rain = 0
KCO1 140633Z 07004KT 11/02 A3024 RMK A01 T01050018  RH  055%=      5-min Rain = 0
KCO1 140634Z 06004KT 11/02 A3024 RMK A01 T01050018  RH  055%=      5-min Rain = 0
KCO1 140635Z 06003KT 11/02 A3024 RMK A01 T01050018  RH  055%=      5-min Rain = 0
KCO1 140636Z 05003KT 10/02 A3024 RMK A01 T01040018  RH  055%=      5-min Rain = 0
KCO1 140637Z 04003KT 10/02 A3024 RMK A01 T01040018  RH  055%=      5-min Rain = 0
KCO1 140638Z 03003KT 10/02 A3024 RMK A01 T01040018  RH  055%=      5-min Rain = 0
KCO1 140639Z 03003KT 10/02 A3024 RMK A01 T01030018  RH  056%=      5-min Rain = 0
KCO1 140640Z 02004KT 10/02 A3024 RMK A01 T01030019  RH  056%=      5-min Rain = 0
KCO1 140641Z 02004KT 10/02 A3024 RMK A01 T01020019  RH  056%=      5-min Rain = 0
KCO1 140642Z 01004KT 10/02 A3024 RMK A01 T01020020  RH  057%=      5-min Rain = 0
KCO1 140643Z 01004KT 10/02 A3025 RMK A01 T01020020  RH  057%=      5-min Rain = 0
KCO1 140644Z 01004KT 10/02 A3025 RMK A01 T01010019  RH  057%=      5-min Rain = 0
KCO1 140645Z 01004KT 10/02 A3025 RMK A01 T01010016  RH  056%=      5-min Rain = 0
KCO1 140646Z 02003KT 10/02 A3024 RMK A01 T00990015  RH  056%=      5-min Rain = 0
KCO1 140647Z 03003KT 10/01 A3024 RMK A01 T00980014  RH  056%=      5-min Rain = 0
KCO1 140648Z 04003KT 10/01 A3024 RMK A01 T00970014  RH  056%=      5-min Rain = 0
KCO1 140649Z 05003KT 10/02 A3024 RMK A01 T00970015  RH  057%=      5-min Rain = 0
KCO1 140650Z 06003KT 10/02 A3024 RMK A01 T00960015  RH  057%=      5-min Rain = 0
KCO1 140651Z 06002KT 10/02 A3024 RMK A01 T00960016  RH  057%=      5-min Rain = 0
KCO1 140652Z 06003KT 10/02 A3024 RMK A01 T00960016  RH  057%=      5-min Rain = 0
KCO1 140653Z 06003KT 10/02 A3024 RMK A01 T00960016  RH  058%=      5-min Rain = 0
KCO1 140654Z 06003KT 10/02 A3024 RMK A01 T00960017  RH  058%=      5-min Rain = 0
KCO1 140655Z 06002KT 10/02 A3024 RMK A01 T00960017  RH  058%=      5-min Rain = 0
KCO1 140656Z 06002KT 10/02 A3024 RMK A01 T00960017  RH  058%=      5-min Rain = 0
KCO1 140657Z 06002KT 10/02 A3024 RMK A01 T00960017  RH  058%=      5-min Rain = 0
KCO1 140658Z 05002KT 10/02 A3024 RMK A01 T00960017  RH  058%=      5-min Rain = 0
KCO1 140659Z 06002KT 10/02 A3024 RMK A01 T00960017  RH  058%=      5-min Rain = 0
KCO1 140700Z 06002KT 10/02 A3024 RMK A01 T00960017  RH  058%=      5-min Rain = 0
KCO1 140701Z 05002KT 10/02 A3024 RMK A01 T00960017  RH  058%=      5-min Rain = 0
KCO1 140702Z 05002KT 10/02 A3024 RMK A01 T00960017  RH  058%=      5-min Rain = 0
KCO1 140703Z 04003KT 10/02 A3024 RMK A01 T00960017  RH  058%=      5-min Rain = 0
KCO1 140704Z 03003KT 10/02 A3024 RMK A01 T00960017  RH  058%=      5-min Rain = 0
KCO1 140705Z 03004KT 10/02 A3024 RMK A01 T00960017  RH  058%=      5-min Rain = 0
KCO1 140706Z 02004KT 10/02 A3024 RMK A01 T00960017  RH  058%=      5-min Rain = 0
KCO1 140707Z 02004KT 10/02 A3024 RMK A01 T00960018  RH  058%=      5-min Rain = 0
KCO1 140708Z 03004KT 10/02 A3024 RMK A01 T00960017  RH  058%=      5-min Rain = 0
KCO1 140709Z 03005KT 10/02 A3024 RMK A01 T00950017  RH  058%=      5-min Rain = 0
KCO1 140710Z 04005KT 10/02 A3024 RMK A01 T00960018  RH  058%=      5-min Rain = 0
KCO1 140711Z 04005KT 10/02 A3024 RMK A01 T00960019  RH  059%=      5-min Rain = 0
KCO1 140712Z 05005KT 10/02 A3024 RMK A01 T00950018  RH  059%=      5-min Rain = 0
KCO1 140713Z 05004KT 10/02 A3024 RMK A01 T00950018  RH  059%=      5-min Rain = 0
KCO1 140714Z 06004KT 10/02 A3024 RMK A01 T00950019  RH  059%=      5-min Rain = 0
KCO1 140715Z 06004KT 10/02 A3024 RMK A01 T00950019  RH  059%=      5-min Rain = 0
KCO1 140716Z 07004KT 10/02 A3024 RMK A01 T00960020  RH  059%=      5-min Rain = 0
KCO1 140717Z 08004KT 10/02 A3024 RMK A01 T00960020  RH  059%=      5-min Rain = 0
KCO1 140718Z 08005KT 10/02 A3024 RMK A01 T00960020  RH  059%=      5-min Rain = 0
KCO1 140719Z 09005KT 10/02 A3024 RMK A01 T00960020  RH  059%=      5-min Rain = 0
KCO1 140720Z 08005KT 10/02 A3024 RMK A01 T00960020  RH  059%=      5-min Rain = 0
KCO1 140721Z 09006KT 10/02 A3024 RMK A01 T00960020  RH  059%=      5-min Rain = 0
KCO1 140722Z 09005KT 10/02 A3024 RMK A01 T00950019  RH  059%=      5-min Rain = 0
KCO1 140723Z 10005KT 10/02 A3024 RMK A01 T00950020  RH  059%=      5-min Rain = 0
KCO1 140724Z 10006KT 10/02 A3024 RMK A01 T00960020  RH  059%=      5-min Rain = 0
KCO1 140725Z 10006KT 10/02 A3024 RMK A01 T00950020  RH  059%=      5-min Rain = 0
KCO1 140726Z 10006KT 10/02 A3024 RMK A01 T00950019  RH  059%=      5-min Rain = 0
KCO1 140727Z 10006KT 10/02 A3024 RMK A01 T00950019  RH  059%=      5-min Rain = 0
KCO1 140728Z 10005KT 10/02 A3024 RMK A01 T00950020  RH  059%=      5-min Rain = 0
KCO1 140729Z 09005KT 10/02 A3024 RMK A01 T00950020  RH  059%=      5-min Rain = 0
KCO1 140730Z 09005KT 10/02 A3024 RMK A01 T00950020  RH  060%=      5-min Rain = 0
KCO1 140731Z 09005KT 10/02 A3024 RMK A01 T00950020  RH  060%=      5-min Rain = 0
KCO1 140732Z 09005KT 10/02 A3024 RMK A01 T00950020  RH  060%=      5-min Rain = 0
KCO1 140733Z 08005KT 10/02 A3024 RMK A01 T00950020  RH  060%=      5-min Rain = 0
KCO1 140734Z 09004KT 10/02 A3024 RMK A01 T00950020  RH  060%=      5-min Rain = 0
KCO1 140735Z 09004KT 10/02 A3023 RMK A01 T00950020  RH  060%=      5-min Rain = 0
KCO1 140736Z 09004KT 09/02 A3023 RMK A01 T00940020  RH  060%=      5-min Rain = 0
KCO1 140737Z 07004KT 09/02 A3023 RMK A01 T00940020  RH  060%=      5-min Rain = 0
KCO1 140738Z 06003KT 09/02 A3023 RMK A01 T00940020  RH  060%=      5-min Rain = 0
KCO1 140739Z 06004KT 09/02 A3023 RMK A01 T00940020  RH  060%=      5-min Rain = 0
KCO1 140740Z 06004KT 09/02 A3023 RMK A01 T00940020  RH  060%=      5-min Rain = 0
KCO1 140741Z 05003KT 09/02 A3023 RMK A01 T00940020  RH  060%=      5-min Rain = 0
KCO1 140742Z 06003KT 09/02 A3023 RMK A01 T00940020  RH  060%=      5-min Rain = 0
KCO1 140743Z 07003KT 09/02 A3023 RMK A01 T00940020  RH  060%=      5-min Rain = 0
KCO1 140744Z 08004KT 09/02 A3023 RMK A01 T00940020  RH  060%=      5-min Rain = 0
KCO1 140745Z 09004KT 09/02 A3023 RMK A01 T00940020  RH  060%=      5-min Rain = 0
KCO1 140746Z 09003KT 09/02 A3023 RMK A01 T00940021  RH  060%=      5-min Rain = 0
KCO1 140747Z 09004KT 09/02 A3023 RMK A01 T00940020  RH  060%=      5-min Rain = 0
KCO1 140748Z 09003KT 09/02 A3024 RMK A01 T00940020  RH  060%=      5-min Rain = 0
KCO1 140749Z 10003KT 09/02 A3024 RMK A01 T00940020  RH  060%=      5-min Rain = 0
KCO1 140750Z 10002KT 09/02 A3024 RMK A01 T00930020  RH  060%=      5-min Rain = 0
KCO1 140751Z 10001KT 09/02 A3024 RMK A01 T00930019  RH  060%=      5-min Rain = 0
KCO1 140752Z 09001KT 09/02 A3024 RMK A01 T00930019  RH  060%=      5-min Rain = 0
KCO1 140753Z 10002KT 09/02 A3024 RMK A01 T00930019  RH  060%=      5-min Rain = 0
KCO1 140754Z 09003KT 09/02 A3024 RMK A01 T00920019  RH  060%=      5-min Rain = 0
KCO1 140755Z 09003KT 09/02 A3024 RMK A01 T00920019  RH  060%=      5-min Rain = 0
KCO1 140756Z 09004KT 09/02 A3024 RMK A01 T00920019  RH  060%=      5-min Rain = 0
KCO1 140757Z 10004KT 09/02 A3024 RMK A01 T00920019  RH  060%=      5-min Rain = 0
KCO1 140758Z 10004KT 09/02 A3024 RMK A01 T00910018  RH  060%=      5-min Rain = 0
KCO1 140759Z 10004KT 09/02 A3024 RMK A01 T00910018  RH  060%=      5-min Rain = 0
KCO1 140800Z 10003KT 09/02 A3024 RMK A01 T00910018  RH  060%=      5-min Rain = 0
KCO1 140801Z 09004KT 09/02 A3023 RMK A01 T00910018  RH  060%=      5-min Rain = 0
KCO1 140802Z 09004KT 09/02 A3023 RMK A01 T00900018  RH  060%=      5-min Rain = 0
KCO1 140803Z 09004KT 09/02 A3023 RMK A01 T00900018  RH  061%=      5-min Rain = 0
KCO1 140804Z 09004KT 09/02 A3023 RMK A01 T00900018  RH  061%=      5-min Rain = 0
KCO1 140805Z 09003KT 09/02 A3023 RMK A01 T00900019  RH  061%=      5-min Rain = 0
KCO1 140806Z 08003KT 09/02 A3023 RMK A01 T00900019  RH  061%=      5-min Rain = 0
KCO1 140807Z 07002KT 09/02 A3023 RMK A01 T00900019  RH  061%=      5-min Rain = 0
KCO1 140808Z 07002KT 09/02 A3023 RMK A01 T00900019  RH  061%=      5-min Rain = 0
KCO1 140809Z 07002KT 09/02 A3023 RMK A01 T00900019  RH  061%=      5-min Rain = 0
KCO1 140810Z 07001KT 09/02 A3023 RMK A01 T00910019  RH  061%=      5-min Rain = 0
KCO1 140811Z 09001KT 09/02 A3023 RMK A01 T00910019  RH  061%=      5-min Rain = 0
KCO1 140812Z 11001KT 09/02 A3024 RMK A01 T00910019  RH  061%=      5-min Rain = 0
KCO1 140813Z 14001KT 09/02 A3024 RMK A01 T00910019  RH  061%=      5-min Rain = 0
KCO1 140814Z 14001KT 09/02 A3024 RMK A01 T00910019  RH  061%=      5-min Rain = 0
KCO1 140815Z 14001KT 09/02 A3023 RMK A01 T00910019  RH  061%=      5-min Rain = 0
KCO1 140816Z 13001KT 09/02 A3023 RMK A01 T00910019  RH  061%=      5-min Rain = 0
KCO1 140817Z 13001KT 09/02 A3023 RMK A01 T00910019  RH  061%=      5-min Rain = 0
KCO1 140818Z 12002KT 09/02 A3023 RMK A01 T00910019  RH  061%=      5-min Rain = 0
KCO1 140819Z 12003KT 09/02 A3024 RMK A01 T00910019  RH  061%=      5-min Rain = 0
KCO1 140820Z 12003KT 09/02 A3024 RMK A01 T00900018  RH  061%=      5-min Rain = 0
KCO1 140821Z 11002KT 09/02 A3023 RMK A01 T00890017  RH  061%=      5-min Rain = 0
KCO1 140822Z 10001KT 09/02 A3023 RMK A01 T00880018  RH  061%=      5-min Rain = 0
KCO1 140823Z 10000KT 09/02 A3023 RMK A01 T00880018  RH  061%=      5-min Rain = 0
KCO1 140824Z 10001KT 09/02 A3023 RMK A01 T00880018  RH  062%=      5-min Rain = 0
KCO1 140825Z 10001KT 09/02 A3023 RMK A01 T00880018  RH  062%=      5-min Rain = 0
KCO1 140826Z 10001KT 09/02 A3024 RMK A01 T00880019  RH  062%=      5-min Rain = 0
KCO1 140827Z 10001KT 09/02 A3024 RMK A01 T00880019  RH  062%=      5-min Rain = 0
KCO1 140828Z 08002KT 09/02 A3024 RMK A01 T00880020  RH  062%=      5-min Rain = 0
KCO1 140829Z 08002KT 09/02 A3024 RMK A01 T00880020  RH  063%=      5-min Rain = 0
KCO1 140830Z 08002KT 09/02 A3024 RMK A01 T00880020  RH  062%=      5-min Rain = 0
KCO1 140831Z 09001KT 09/02 A3024 RMK A01 T00880019  RH  062%=      5-min Rain = 0
KCO1 140832Z 08000KT 09/02 A3023 RMK A01 T00880018  RH  061%=      5-min Rain = 0
KCO1 140833Z 00000KT 09/02 A3023 RMK A01 T00880019  RH  062%=      5-min Rain = 0
KCO1 140834Z 00000KT 09/02 A3023 RMK A01 T00880018  RH  062%=      5-min Rain = 0
KCO1 140835Z 36001KT 09/02 A3023 RMK A01 T00880017  RH  061%=      5-min Rain = 0
KCO1 140836Z 35001KT 09/02 A3023 RMK A01 T00880019  RH  062%=      5-min Rain = 0
KCO1 140837Z 33002KT 09/02 A3023 RMK A01 T00880019  RH  062%=      5-min Rain = 0
KCO1 140838Z 33002KT 09/02 A3023 RMK A01 T00890019  RH  062%=      5-min Rain = 0
KCO1 140839Z 32003KT 09/02 A3023 RMK A01 T00890017  RH  061%=      5-min Rain = 0
KCO1 140840Z 31003KT 09/01 A3023 RMK A01 T00860014  RH  060%=      5-min Rain = 0
KCO1 140841Z 31003KT 09/01 A3023 RMK A01 T00850013  RH  061%=      5-min Rain = 0
KCO1 140842Z 32004KT 08/01 A3023 RMK A01 T00840014  RH  061%=      5-min Rain = 0
KCO1 140843Z 32004KT 08/01 A3023 RMK A01 T00830014  RH  062%=      5-min Rain = 0
KCO1 140844Z 32004KT 08/02 A3023 RMK A01 T00830016  RH  062%=      5-min Rain = 0
KCO1 140845Z 32004KT 08/02 A3023 RMK A01 T00830016  RH  063%=      5-min Rain = 0
KCO1 140846Z 33003KT 08/02 A3022 RMK A01 T00840016  RH  062%=      5-min Rain = 0
KCO1 140847Z 34003KT 08/02 A3022 RMK A01 T00840016  RH  062%=      5-min Rain = 0
KCO1 140848Z 36003KT 08/02 A3022 RMK A01 T00840017  RH  063%=      5-min Rain = 0
KCO1 140849Z 01003KT 08/02 A3022 RMK A01 T00840017  RH  063%=      5-min Rain = 0
KCO1 140850Z 01002KT 08/02 A3022 RMK A01 T00840017  RH  063%=      5-min Rain = 0
KCO1 140851Z 35002KT 08/02 A3023 RMK A01 T00840018  RH  063%=      5-min Rain = 0
KCO1 140852Z 34002KT 08/02 A3023 RMK A01 T00840017  RH  063%=      5-min Rain = 0
KCO1 140853Z 34002KT 08/02 A3023 RMK A01 T00840017  RH  063%=      5-min Rain = 0
KCO1 140854Z 02002KT 08/02 A3023 RMK A01 T00830017  RH  063%=      5-min Rain = 0
KCO1 140855Z 04003KT 08/02 A3023 RMK A01 T00830016  RH  063%=      5-min Rain = 0
KCO1 140856Z 04003KT 08/02 A3023 RMK A01 T00830017  RH  063%=      5-min Rain = 0
KCO1 140857Z 03002KT 08/02 A3022 RMK A01 T00830016  RH  063%=      5-min Rain = 0
KCO1 140858Z 04002KT 08/02 A3022 RMK A01 T00830016  RH  063%=      5-min Rain = 0
KCO1 140859Z 06003KT 08/02 A3022 RMK A01 T00830016  RH  063%=      5-min Rain = 0
KCO1 140900Z 06003KT 08/02 A3022 RMK A01 T00830016  RH  063%=      5-min Rain = 0
KCO1 140901Z 06002KT 08/02 A3022 RMK A01 T00830016  RH  063%=      5-min Rain = 0
KCO1 140902Z 06002KT 08/02 A3022 RMK A01 T00830016  RH  063%=      5-min Rain = 0
KCO1 140903Z 06002KT 08/02 A3022 RMK A01 T00830016  RH  063%=      5-min Rain = 0
KCO1 140904Z 06002KT 08/02 A3022 RMK A01 T00830016  RH  063%=      5-min Rain = 0
KCO1 140905Z 06002KT 08/02 A3023 RMK A01 T00830016  RH  063%=      5-min Rain = 0
KCO1 140906Z 06003KT 08/02 A3023 RMK A01 T00830016  RH  063%=      5-min Rain = 0
KCO1 140907Z 07002KT 08/02 A3023 RMK A01 T00830017  RH  063%=      5-min Rain = 0
KCO1 140908Z 07002KT 08/02 A3022 RMK A01 T00830017  RH  063%=      5-min Rain = 0
KCO1 140909Z 08002KT 08/02 A3022 RMK A01 T00830017  RH  063%=      5-min Rain = 0
KCO1 140910Z 08002KT 08/02 A3022 RMK A01 T00830017  RH  063%=      5-min Rain = 0
KCO1 140911Z 08002KT 08/02 A3022 RMK A01 T00830017  RH  063%=      5-min Rain = 0
KCO1 140912Z 08001KT 08/02 A3022 RMK A01 T00830017  RH  063%=      5-min Rain = 0
KCO1 140913Z 08002KT 08/02 A3022 RMK A01 T00830016  RH  063%=      5-min Rain = 0
KCO1 140914Z 09003KT 08/02 A3022 RMK A01 T00820016  RH  063%=      5-min Rain = 0
KCO1 140915Z 09003KT 08/02 A3022 RMK A01 T00820016  RH  063%=      5-min Rain = 0
KCO1 140916Z 09003KT 08/02 A3022 RMK A01 T00820016  RH  063%=      5-min Rain = 0
KCO1 140917Z 10004KT 08/02 A3022 RMK A01 T00810016  RH  063%=      5-min Rain = 0
KCO1 140918Z 10004KT 08/02 A3022 RMK A01 T00820017  RH  064%=      5-min Rain = 0
KCO1 140919Z 11004KT 08/02 A3022 RMK A01 T00810017  RH  064%=      5-min Rain = 0
KCO1 140920Z 11004KT 08/02 A3022 RMK A01 T00820017  RH  064%=      5-min Rain = 0
KCO1 140921Z 11004KT 08/02 A3022 RMK A01 T00820017  RH  064%=      5-min Rain = 0
KCO1 140922Z 12004KT 08/02 A3022 RMK A01 T00820017  RH  064%=      5-min Rain = 0
KCO1 140923Z 11004KT 08/02 A3022 RMK A01 T00820017  RH  064%=      5-min Rain = 0
KCO1 140924Z 11004KT 08/02 A3022 RMK A01 T00820017  RH  064%=      5-min Rain = 0
KCO1 140925Z 11004KT 08/02 A3022 RMK A01 T00830018  RH  064%=      5-min Rain = 0
KCO1 140926Z 12003KT 08/02 A3022 RMK A01 T00830018  RH  064%=      5-min Rain = 0
KCO1 140927Z 13003KT 08/02 A3022 RMK A01 T00830018  RH  064%=      5-min Rain = 0
KCO1 140928Z 13003KT 08/02 A3022 RMK A01 T00830018  RH  064%=      5-min Rain = 0
KCO1 140929Z 13004KT 08/02 A3022 RMK A01 T00830019  RH  064%=      5-min Rain = 0
KCO1 140930Z 13004KT 08/02 A3022 RMK A01 T00840019  RH  064%=      5-min Rain = 0
KCO1 140931Z 13004KT 08/02 A3022 RMK A01 T00840019  RH  064%=      5-min Rain = 0
KCO1 140932Z 12004KT 08/02 A3022 RMK A01 T00840019  RH  064%=      5-min Rain = 0
KCO1 140933Z 11004KT 08/02 A3022 RMK A01 T00840019  RH  064%=      5-min Rain = 0
KCO1 140934Z 11004KT 08/02 A3022 RMK A01 T00840019  RH  064%=      5-min Rain = 0
KCO1 140935Z 11004KT 08/02 A3022 RMK A01 T00840019  RH  064%=      5-min Rain = 0
KCO1 140936Z 11004KT 08/02 A3021 RMK A01 T00840019  RH  064%=      5-min Rain = 0
KCO1 140937Z 10004KT 08/02 A3021 RMK A01 T00840020  RH  064%=      5-min Rain = 0
KCO1 140938Z 10003KT 08/02 A3021 RMK A01 T00840020  RH  064%=      5-min Rain = 0
KCO1 140939Z 09003KT 09/02 A3021 RMK A01 T00850020  RH  064%=      5-min Rain = 0
KCO1 140940Z 08003KT 08/02 A3021 RMK A01 T00840019  RH  064%=      5-min Rain = 0
KCO1 140941Z 08003KT 09/02 A3021 RMK A01 T00850020  RH  064%=      5-min Rain = 0
KCO1 140942Z 08003KT 09/02 A3021 RMK A01 T00850019  RH  064%=      5-min Rain = 0
KCO1 140943Z 09003KT 09/02 A3021 RMK A01 T00850020  RH  064%=      5-min Rain = 0
KCO1 140944Z 09003KT 09/02 A3021 RMK A01 T00850020  RH  064%=      5-min Rain = 0
KCO1 140945Z 09002KT 09/02 A3021 RMK A01 T00850019  RH  064%=      5-min Rain = 0
KCO1 140946Z 08002KT 09/02 A3021 RMK A01 T00850020  RH  064%=      5-min Rain = 0
KCO1 140947Z 08001KT 09/02 A3021 RMK A01 T00850020  RH  064%=      5-min Rain = 0
KCO1 140948Z 08000KT 09/02 A3021 RMK A01 T00850020  RH  064%=      5-min Rain = 0
KCO1 140949Z 34001KT 09/02 A3021 RMK A01 T00850020  RH  064%=      5-min Rain = 0
KCO1 140950Z 35002KT 09/02 A3022 RMK A01 T00860021  RH  064%=      5-min Rain = 0
KCO1 140951Z 00002KT 09/02 A3022 RMK A01 T00860021  RH  063%=      5-min Rain = 0
KCO1 140952Z 36002KT 09/02 A3022 RMK A01 T00860020  RH  063%=      5-min Rain = 0
KCO1 140953Z 00002KT 09/02 A3022 RMK A01 T00860021  RH  063%=      5-min Rain = 0
KCO1 140954Z 01001KT 09/02 A3021 RMK A01 T00860021  RH  064%=      5-min Rain = 0
KCO1 140955Z 06001KT 09/02 A3021 RMK A01 T00860022  RH  064%=      5-min Rain = 0
KCO1 140956Z 08002KT 09/02 A3021 RMK A01 T00860021  RH  064%=      5-min Rain = 0
KCO1 140957Z 09003KT 09/02 A3021 RMK A01 T00860022  RH  064%=      5-min Rain = 0
KCO1 140958Z 10003KT 09/02 A3021 RMK A01 T00860022  RH  064%=      5-min Rain = 0
KCO1 140959Z 11003KT 09/02 A3021 RMK A01 T00860022  RH  064%=      5-min Rain = 0
KCO1 141000Z 11003KT 09/02 A3021 RMK A01 T00860021  RH  064%=      5-min Rain = 0
KCO1 141001Z 11003KT 09/02 A3021 RMK A01 T00850021  RH  064%=      5-min Rain = 0
KCO1 141002Z 10003KT 09/02 A3021 RMK A01 T00850022  RH  064%=      5-min Rain = 0
KCO1 141003Z 10003KT 09/02 A3021 RMK A01 T00850022  RH  065%=      5-min Rain = 0
KCO1 141004Z 09002KT 09/02 A302 RMK A01 T00850023  RH  065%=      5-min Rain = 0
KCO1 141005Z 08001KT 09/02 A302 RMK A01 T00850023  RH  065%=      5-min Rain = 0
KCO1 141006Z 08000KT 09/02 A3021 RMK A01 T00850023  RH  065%=      5-min Rain = 0
KCO1 141007Z 00000KT 09/02 A3021 RMK A01 T00850024  RH  065%=      5-min Rain = 0
KCO1 141008Z 00000KT 09/03 A3021 RMK A01 T00850025  RH  066%=      5-min Rain = 0
KCO1 141009Z 00000KT 09/03 A3021 RMK A01 T00860026  RH  066%=      5-min Rain = 0
KCO1 141010Z 00000KT 09/03 A3021 RMK A01 T00870026  RH  066%=      5-min Rain = 0
KCO1 141011Z 33000KT 09/02 A3021 RMK A01 T00870023  RH  064%=      5-min Rain = 0
KCO1 141012Z 00000KT 09/02 A3021 RMK A01 T00880023  RH  064%=      5-min Rain = 0
KCO1 141013Z 00000KT 09/02 A3021 RMK A01 T00870023  RH  064%=      5-min Rain = 0
KCO1 141014Z 00000KT 09/02 A3021 RMK A01 T00870024  RH  064%=      5-min Rain = 0
KCO1 141015Z 00000KT 09/02 A3021 RMK A01 T00870023  RH  064%=      5-min Rain = 0
KCO1 141016Z 00000KT 09/02 A3021 RMK A01 T00870023  RH  064%=      5-min Rain = 0
KCO1 141017Z 00000KT 09/02 A3021 RMK A01 T00870023  RH  064%=      5-min Rain = 0
KCO1 141018Z 00000KT 09/02 A3021 RMK A01 T00870022  RH  064%=      5-min Rain = 0
KCO1 141019Z 00000KT 09/02 A3021 RMK A01 T00870021  RH  063%=      5-min Rain = 0
KCO1 141020Z 00000KT 09/02 A3021 RMK A01 T00870020  RH  063%=      5-min Rain = 0
KCO1 141021Z 33000KT 09/02 A3021 RMK A01 T00860019  RH  063%=      5-min Rain = 0
KCO1 141022Z 33001KT 09/02 A3021 RMK A01 T00860019  RH  063%=      5-min Rain = 0
KCO1 141023Z 33001KT 09/02 A3021 RMK A01 T00860020  RH  063%=      5-min Rain = 0
KCO1 141024Z 33001KT 09/02 A3021 RMK A01 T00850020  RH  064%=      5-min Rain = 0
KCO1 141025Z 21001KT 09/02 A3022 RMK A01 T00850021  RH  064%=      5-min Rain = 0
KCO1 141026Z 20001KT 09/02 A3022 RMK A01 T00850022  RH  064%=      5-min Rain = 0
KCO1 141027Z 21002KT 09/02 A3022 RMK A01 T00850022  RH  065%=      5-min Rain = 0
KCO1 141028Z 21001KT 09/02 A3022 RMK A01 T00860023  RH  065%=      5-min Rain = 0
KCO1 141029Z 21001KT 09/02 A3022 RMK A01 T00860023  RH  064%=      5-min Rain = 0
KCO1 141030Z 22001KT 09/02 A3022 RMK A01 T00860022  RH  064%=      5-min Rain = 0
KCO1 141031Z 25001KT 09/02 A3022 RMK A01 T00860022  RH  064%=      5-min Rain = 0
KCO1 141032Z 24002KT 09/02 A3022 RMK A01 T00860022  RH  064%=      5-min Rain = 0
KCO1 141033Z 23002KT 09/02 A3022 RMK A01 T00860021  RH  064%=      5-min Rain = 0
KCO1 141034Z 23002KT 09/02 A3022 RMK A01 T00860021  RH  063%=      5-min Rain = 0
KCO1 141035Z 24002KT 09/02 A3022 RMK A01 T00860021  RH  063%=      5-min Rain = 0
KCO1 141036Z 24001KT 09/02 A3022 RMK A01 T00870021  RH  063%=      5-min Rain = 0
KCO1 141037Z 24001KT 09/02 A3022 RMK A01 T00870021  RH  063%=      5-min Rain = 0
KCO1 141038Z 22002KT 09/02 A3022 RMK A01 T00870020  RH  063%=      5-min Rain = 0
KCO1 141039Z 23002KT 09/02 A3022 RMK A01 T00870020  RH  063%=      5-min Rain = 0
KCO1 141040Z 24002KT 09/02 A3022 RMK A01 T00870020  RH  063%=      5-min Rain = 0
KCO1 141041Z 24001KT 09/02 A3022 RMK A01 T00870021  RH  063%=      5-min Rain = 0
KCO1 141042Z 25001KT 09/02 A3022 RMK A01 T00870021  RH  063%=      5-min Rain = 0
KCO1 141043Z 27001KT 09/02 A3022 RMK A01 T00870020  RH  063%=      5-min Rain = 0
KCO1 141044Z 27000KT 09/02 A3022 RMK A01 T00870020  RH  063%=      5-min Rain = 0
KCO1 141045Z 00000KT 09/02 A3022 RMK A01 T00870020  RH  063%=      5-min Rain = 0
KCO1 141046Z 00000KT 09/02 A3021 RMK A01 T00860020  RH  063%=      5-min Rain = 0
KCO1 141047Z 27000KT 09/02 A3021 RMK A01 T00860020  RH  063%=      5-min Rain = 0
KCO1 141048Z 27000KT 09/02 A3021 RMK A01 T00860020  RH  063%=      5-min Rain = 0
KCO1 141049Z 00000KT 09/02 A3021 RMK A01 T00860020  RH  063%=      5-min Rain = 0
KCO1 141050Z 00000KT 09/02 A3021 RMK A01 T00860020  RH  063%=      5-min Rain = 0
KCO1 141051Z 00000KT 09/02 A3021 RMK A01 T00860020  RH  063%=      5-min Rain = 0
KCO1 141052Z 00000KT 09/02 A3021 RMK A01 T00850019  RH  063%=      5-min Rain = 0
KCO1 141053Z 00000KT 09/02 A3021 RMK A01 T00850019  RH  063%=      5-min Rain = 0
KCO1 141054Z 20000KT 09/02 A3021 RMK A01 T00850019  RH  063%=      5-min Rain = 0
KCO1 141055Z 19001KT 09/02 A3021 RMK A01 T00850020  RH  064%=      5-min Rain = 0
KCO1 141056Z 19001KT 09/02 A3021 RMK A01 T00850020  RH  064%=      5-min Rain = 0
KCO1 141057Z 18001KT 08/02 A3021 RMK A01 T00840019  RH  064%=      5-min Rain = 0
KCO1 141058Z 18000KT 08/02 A3021 RMK A01 T00830019  RH  064%=      5-min Rain = 0
KCO1 141059Z 18000KT 08/02 A3021 RMK A01 T00840020  RH  064%=      5-min Rain = 0
KCO1 141100Z 00000KT 08/02 A3021 RMK A01 T00830019  RH  064%=      5-min Rain = 0
KCO1 141101Z 13000KT 08/02 A3021 RMK A01 T00830020  RH  065%=      5-min Rain = 0
KCO1 141102Z 00000KT 08/02 A3021 RMK A01 T00830019  RH  064%=      5-min Rain = 0
KCO1 141103Z 13000KT 08/02 A3021 RMK A01 T00830019  RH  064%=      5-min Rain = 0
KCO1 141104Z 14001KT 08/02 A3021 RMK A01 T00820018  RH  064%=      5-min Rain = 0
KCO1 141105Z 15002KT 08/02 A3021 RMK A01 T00810017  RH  064%=      5-min Rain = 0
KCO1 141106Z 16002KT 08/02 A3021 RMK A01 T00810018  RH  064%=      5-min Rain = 0
KCO1 141107Z 17002KT 08/02 A3021 RMK A01 T00810019  RH  065%=      5-min Rain = 0
KCO1 141108Z 16002KT 08/02 A3021 RMK A01 T00810019  RH  065%=      5-min Rain = 0
KCO1 141109Z 17003KT 08/02 A3022 RMK A01 T00820018  RH  064%=      5-min Rain = 0
KCO1 141110Z 17003KT 08/02 A3022 RMK A01 T00820018  RH  064%=      5-min Rain = 0
KCO1 141111Z 16003KT 08/02 A3022 RMK A01 T00820018  RH  064%=      5-min Rain = 0
KCO1 141112Z 16003KT 08/02 A3022 RMK A01 T00820018  RH  064%=      5-min Rain = 0
KCO1 141113Z 16003KT 08/02 A3022 RMK A01 T00820018  RH  064%=      5-min Rain = 0
KCO1 141114Z 16003KT 08/02 A3022 RMK A01 T00820019  RH  064%=      5-min Rain = 0
KCO1 141115Z 16003KT 08/02 A3022 RMK A01 T00820019  RH  064%=      5-min Rain = 0
KCO1 141116Z 17003KT 08/02 A3022 RMK A01 T00820018  RH  064%=      5-min Rain = 0
KCO1 141117Z 17004KT 08/02 A3022 RMK A01 T00810018  RH  064%=      5-min Rain = 0
KCO1 141118Z 16004KT 08/02 A3022 RMK A01 T00820018  RH  064%=      5-min Rain = 0
KCO1 141119Z 16005KT 08/02 A3022 RMK A01 T00810018  RH  064%=      5-min Rain = 0
KCO1 141120Z 15005KT 08/02 A3022 RMK A01 T00810019  RH  065%=      5-min Rain = 0
KCO1 141121Z 14005KT 08/02 A3022 RMK A01 T00820019  RH  065%=      5-min Rain = 0
KCO1 141122Z 14005KT 08/02 A3022 RMK A01 T00810021  RH  066%=      5-min Rain = 0
KCO1 141123Z 14004KT 08/02 A3022 RMK A01 T00820023  RH  066%=      5-min Rain = 0
KCO1 141124Z 14003KT 08/03 A3022 RMK A01 T00820025  RH  067%=      5-min Rain = 0
KCO1 141125Z 14002KT 08/03 A3021 RMK A01 T00830026  RH  067%=      5-min Rain = 0
KCO1 141126Z 10002KT 08/03 A3021 RMK A01 T00830026  RH  068%=      5-min Rain = 0
KCO1 141127Z 08002KT 08/03 A3022 RMK A01 T00830026  RH  067%=      5-min Rain = 0
KCO1 141128Z 09002KT 08/03 A3022 RMK A01 T00840025  RH  066%=      5-min Rain = 0
KCO1 141129Z 10003KT 08/03 A3022 RMK A01 T00840025  RH  066%=      5-min Rain = 0
KCO1 141130Z 11003KT 08/03 A3022 RMK A01 T00840025  RH  066%=      5-min Rain = 0
KCO1 141131Z 12003KT 08/02 A3022 RMK A01 T00840024  RH  066%=      5-min Rain = 0
KCO1 141132Z 11003KT 08/02 A3022 RMK A01 T00840024  RH  066%=      5-min Rain = 0
KCO1 141133Z 11003KT 08/02 A3022 RMK A01 T00840024  RH  066%=      5-min Rain = 0
KCO1 141134Z 10003KT 08/02 A3022 RMK A01 T00840024  RH  066%=      5-min Rain = 0
KCO1 141135Z 10003KT 08/02 A3022 RMK A01 T00830023  RH  066%=      5-min Rain = 0
KCO1 141136Z 10004KT 08/02 A3021 RMK A01 T00830023  RH  066%=      5-min Rain = 0
KCO1 141137Z 10004KT 08/02 A3021 RMK A01 T00820023  RH  066%=      5-min Rain = 0
KCO1 141138Z 11004KT 08/02 A3021 RMK A01 T00820023  RH  066%=      5-min Rain = 0
KCO1 141139Z 12003KT 08/02 A3021 RMK A01 T00820024  RH  067%=      5-min Rain = 0
KCO1 141140Z 11003KT 08/02 A3022 RMK A01 T00820024  RH  067%=      5-min Rain = 0
KCO1 141141Z 11002KT 08/02 A3022 RMK A01 T00820024  RH  067%=      5-min Rain = 0
KCO1 141142Z 11002KT 08/02 A3022 RMK A01 T00820024  RH  067%=      5-min Rain = 0
KCO1 141143Z 11002KT 08/02 A3022 RMK A01 T00820024  RH  067%=      5-min Rain = 0
KCO1 141144Z 09001KT 08/03 A3022 RMK A01 T00820025  RH  067%=      5-min Rain = 0
KCO1 141145Z 08001KT 08/03 A3022 RMK A01 T00820025  RH  067%=      5-min Rain = 0
KCO1 141146Z 08001KT 08/03 A3022 RMK A01 T00820025  RH  067%=      5-min Rain = 0
KCO1 141147Z 09001KT 08/03 A3022 RMK A01 T00820025  RH  067%=      5-min Rain = 0
KCO1 141148Z 09000KT 08/03 A3022 RMK A01 T00830026  RH  067%=      5-min Rain = 0
KCO1 141149Z 00000KT 08/03 A3022 RMK A01 T00830025  RH  067%=      5-min Rain = 0
KCO1 141150Z 32001KT 08/03 A3022 RMK A01 T00840026  RH  067%=      5-min Rain = 0
KCO1 141151Z 32003KT 08/03 A3022 RMK A01 T00840025  RH  066%=      5-min Rain = 0
KCO1 141152Z 33003KT 08/02 A3022 RMK A01 T00830022  RH  065%=      5-min Rain = 0
KCO1 141153Z 34003KT 08/02 A3022 RMK A01 T00820019  RH  065%=      5-min Rain = 0
KCO1 141154Z 35003KT 08/02 A3022 RMK A01 T00810018  RH  065%=      5-min Rain = 0
KCO1 141155Z 35004KT 08/02 A3022 RMK A01 T00800018  RH  065%=      5-min Rain = 0
KCO1 141156Z 33004KT 08/02 A3022 RMK A01 T00800017  RH  065%=      5-min Rain = 0
KCO1 141157Z 32004KT 08/02 A3023 RMK A01 T00790017  RH  065%=      5-min Rain = 0
KCO1 141158Z 31004KT 08/02 A3023 RMK A01 T00790017  RH  065%=      5-min Rain = 0
KCO1 141159Z 31004KT 08/02 A3023 RMK A01 T00790016  RH  064%=      5-min Rain = 0
KCO1 141200Z 30005KT 08/01 A3023 RMK A01 T00780013  RH  064%=      5-min Rain = 0
KCO1 141201Z 31005KT 08/01 A3023 RMK A01 T00770011  RH  063%=      5-min Rain = 0
KCO1 141202Z 32004KT 08/01 A3023 RMK A01 T00760011  RH  063%=      5-min Rain = 0
KCO1 141203Z 33003KT 08/01 A3023 RMK A01 T00770012  RH  064%=      5-min Rain = 0
KCO1 141204Z 33003KT 08/01 A3023 RMK A01 T00760012  RH  064%=      5-min Rain = 0
KCO1 141205Z 33003KT 08/01 A3023 RMK A01 T00760012  RH  064%=      5-min Rain = 0
KCO1 141206Z 32002KT 08/01 A3023 RMK A01 T00760012  RH  064%=      5-min Rain = 0
KCO1 141207Z 33002KT 08/01 A3023 RMK A01 T00760012  RH  064%=      5-min Rain = 0
KCO1 141208Z 32003KT 08/01 A3023 RMK A01 T00760014  RH  064%=      5-min Rain = 0
KCO1 141209Z 32003KT 08/02 A3023 RMK A01 T00770015  RH  065%=      5-min Rain = 0
KCO1 141210Z 32004KT 08/02 A3023 RMK A01 T00780016  RH  065%=      5-min Rain = 0
KCO1 141211Z 31003KT 08/02 A3023 RMK A01 T00780015  RH  064%=      5-min Rain = 0
KCO1 141212Z 31003KT 08/01 A3023 RMK A01 T00770013  RH  064%=      5-min Rain = 0
KCO1 141213Z 31003KT 08/01 A3023 RMK A01 T00760012  RH  064%=      5-min Rain = 0
KCO1 141214Z 30003KT 08/01 A3023 RMK A01 T00760012  RH  064%=      5-min Rain = 0
KCO1 141215Z 30003KT 08/01 A3023 RMK A01 T00750012  RH  064%=      5-min Rain = 0
KCO1 141216Z 30003KT 08/01 A3022 RMK A01 T00760013  RH  064%=      5-min Rain = 0
KCO1 141217Z 30003KT 08/01 A3022 RMK A01 T00750013  RH  065%=      5-min Rain = 0
KCO1 141218Z 30003KT 08/01 A3022 RMK A01 T00750013  RH  065%=      5-min Rain = 0
KCO1 141219Z 30003KT 08/01 A3023 RMK A01 T00760014  RH  065%=      5-min Rain = 0
KCO1 141220Z 30002KT 08/01 A3023 RMK A01 T00750014  RH  065%=      5-min Rain = 0
KCO1 141221Z 31002KT 08/01 A3022 RMK A01 T00760014  RH  065%=      5-min Rain = 0
KCO1 141222Z 31003KT 08/02 A3022 RMK A01 T00760015  RH  066%=      5-min Rain = 0
KCO1 141223Z 31002KT 08/02 A3022 RMK A01 T00760016  RH  066%=      5-min Rain = 0
KCO1 141224Z 31002KT 08/02 A3022 RMK A01 T00770017  RH  066%=      5-min Rain = 0
KCO1 141225Z 31002KT 08/02 A3022 RMK A01 T00770017  RH  066%=      5-min Rain = 0
KCO1 141226Z 31002KT 08/02 A3022 RMK A01 T00770017  RH  066%=      5-min Rain = 0
KCO1 141227Z 32001KT 08/02 A3022 RMK A01 T00770017  RH  066%=      5-min Rain = 0
KCO1 141228Z 32001KT 08/02 A3022 RMK A01 T00770017  RH  066%=      5-min Rain = 0
KCO1 141229Z 32001KT 08/02 A3022 RMK A01 T00770017  RH  066%=      5-min Rain = 0
KCO1 141230Z 32000KT 08/02 A3023 RMK A01 T00770017  RH  066%=      5-min Rain = 0
KCO1 141231Z 28000KT 08/02 A3023 RMK A01 T00770017  RH  066%=      5-min Rain = 0
KCO1 141232Z 26000KT 08/02 A3022 RMK A01 T00770017  RH  066%=      5-min Rain = 0
KCO1 141233Z 26000KT 08/02 A3022 RMK A01 T00770018  RH  066%=      5-min Rain = 0
KCO1 141234Z 26000KT 08/02 A3022 RMK A01 T00770018  RH  067%=      5-min Rain = 0
KCO1 141235Z 00000KT 08/02 A3022 RMK A01 T00770019  RH  067%=      5-min Rain = 0
KCO1 141236Z 29001KT 08/02 A3022 RMK A01 T00770019  RH  067%=      5-min Rain = 0
KCO1 141237Z 30000KT 08/02 A3022 RMK A01 T00770020  RH  067%=      5-min Rain = 0
KCO1 141238Z 33001KT 08/02 A3022 RMK A01 T00770019  RH  067%=      5-min Rain = 0
KCO1 141239Z 35001KT 08/02 A3022 RMK A01 T00760016  RH  066%=      5-min Rain = 0
KCO1 141240Z 01002KT 08/02 A3022 RMK A01 T00750018  RH  067%=      5-min Rain = 0
KCO1 141241Z 02001KT 08/02 A3022 RMK A01 T00760020  RH  068%=      5-min Rain = 0
KCO1 141242Z 02000KT 08/02 A3022 RMK A01 T00760018  RH  066%=      5-min Rain = 0
KCO1 141243Z 06002KT 08/01 A3022 RMK A01 T00750014  RH  065%=      5-min Rain = 0
KCO1 141244Z 06003KT 07/01 A3022 RMK A01 T00740014  RH  066%=      5-min Rain = 0
KCO1 141245Z 07002KT 07/01 A3022 RMK A01 T00720013  RH  066%=      5-min Rain = 0
KCO1 141246Z 07002KT 07/01 A3022 RMK A01 T00710013  RH  067%=      5-min Rain = 0
KCO1 141247Z 07003KT 07/01 A3022 RMK A01 T00700014  RH  067%=      5-min Rain = 0
KCO1 141248Z 07003KT 07/01 A3022 RMK A01 T00690013  RH  067%=      5-min Rain = 0
KCO1 141249Z 07002KT 07/01 A3022 RMK A01 T00680013  RH  068%=      5-min Rain = 0
KCO1 141250Z 07003KT 07/01 A3021 RMK A01 T00670013  RH  068%=      5-min Rain = 0
KCO1 141251Z 07003KT 07/01 A3021 RMK A01 T00670013  RH  068%=      5-min Rain = 0
KCO1 141252Z 07002KT 07/01 A3022 RMK A01 T00660013  RH  069%=      5-min Rain = 0
KCO1 141253Z 07003KT 07/01 A3022 RMK A01 T00650012  RH  069%=      5-min Rain = 0
KCO1 141254Z 07003KT 07/01 A3021 RMK A01 T00650012  RH  069%=      5-min Rain = 0
KCO1 141255Z 07002KT 06/01 A3022 RMK A01 T00640011  RH  069%=      5-min Rain = 0
KCO1 141256Z 08002KT 06/01 A3022 RMK A01 T00640011  RH  069%=      5-min Rain = 0
KCO1 141257Z 08002KT 06/01 A3022 RMK A01 T00630011  RH  069%=      5-min Rain = 0
KCO1 141258Z 09003KT 06/01 A3022 RMK A01 T00630011  RH  069%=      5-min Rain = 0
KCO1 141259Z 09003KT 06/01 A3022 RMK A01 T00630012  RH  070%=      5-min Rain = 0
KCO1 141300Z 09002KT 06/01 A3022 RMK A01 T00630012  RH  070%=      5-min Rain = 0
KCO1 141301Z 09002KT 06/01 A3022 RMK A01 T00630012  RH  070%=      5-min Rain = 0
KCO1 141302Z 09003KT 06/01 A3022 RMK A01 T00620011  RH  070%=      5-min Rain = 0
KCO1 141303Z 09004KT 06/01 A3021 RMK A01 T00610010  RH  070%=      5-min Rain = 0
KCO1 141304Z 09003KT 06/01 A3022 RMK A01 T00590009  RH  070%=      5-min Rain = 0
KCO1 141305Z 09003KT 06/01 A3021 RMK A01 T00580007  RH  070%=      5-min Rain = 0
KCO1 141306Z 09003KT 06/01 A3021 RMK A01 T00570005  RH  069%=      5-min Rain = 0
KCO1 141307Z 12003KT 05/00 A3021 RMK A01 T00540003  RH  069%=      5-min Rain = 0
KCO1 141308Z 15003KT 05/00 A3021 RMK A01 T00530004  RH  071%=      5-min Rain = 0
KCO1 141309Z 13004KT 05/01 A3021 RMK A01 T00520006  RH  072%=      5-min Rain = 0
KCO1 141310Z 12004KT 05/01 A3021 RMK A01 T00520005  RH  072%=      5-min Rain = 0
KCO1 141311Z 12004KT 05/01 A3021 RMK A01 T00510005  RH  072%=      5-min Rain = 0
KCO1 141312Z 12004KT 05/01 A3021 RMK A01 T00500005  RH  072%=      5-min Rain = 0
KCO1 141313Z 13004KT 05/01 A3021 RMK A01 T00500005  RH  073%=      5-min Rain = 0
KCO1 141314Z 12004KT 05/01 A3021 RMK A01 T00500005  RH  073%=      5-min Rain = 0
KCO1 141315Z 13003KT 05/01 A3021 RMK A01 T00490005  RH  073%=      5-min Rain = 0
KCO1 141316Z 14003KT 05/01 A3021 RMK A01 T00490005  RH  073%=      5-min Rain = 0
KCO1 141317Z 13004KT 05/01 A3021 RMK A01 T00490005  RH  073%=      5-min Rain = 0
KCO1 141318Z 12004KT 05/01 A3021 RMK A01 T00490005  RH  073%=      5-min Rain = 0
KCO1 141319Z 14003KT 05/01 A3021 RMK A01 T00480005  RH  073%=      5-min Rain = 0
KCO1 141320Z 14004KT 05/01 A3021 RMK A01 T00480005  RH  073%=      5-min Rain = 0
KCO1 141321Z 14005KT 05/01 A3021 RMK A01 T00480005  RH  074%=      5-min Rain = 0
KCO1 141322Z 13005KT 05/01 A3021 RMK A01 T00480005  RH  074%=      5-min Rain = 0
KCO1 141323Z 13005KT 05/00 A3021 RMK A01 T00480004  RH  073%=      5-min Rain = 0
KCO1 141324Z 13006KT 05/00 A3021 RMK A01 T00480004  RH  073%=      5-min Rain = 0
KCO1 141325Z 13006KT 05/00 A3021 RMK A01 T00470004  RH  074%=      5-min Rain = 0
KCO1 141326Z 13006KT 05/01 A3021 RMK A01 T00480005  RH  074%=      5-min Rain = 0
KCO1 141327Z 13006KT 05/01 A3021 RMK A01 T00490005  RH  073%=      5-min Rain = 0
KCO1 141328Z 13006KT 05/01 A3021 RMK A01 T00500006  RH  073%=      5-min Rain = 0
KCO1 141329Z 14006KT 05/01 A3021 RMK A01 T00510007  RH  073%=      5-min Rain = 0
KCO1 141330Z 15006KT 05/01 A3021 RMK A01 T00520007  RH  073%=      5-min Rain = 0
KCO1 141331Z 15006KT 05/01 A3021 RMK A01 T00520006  RH  072%=      5-min Rain = 0
KCO1 141332Z 16006KT 05/01 A3021 RMK A01 T00530006  RH  072%=      5-min Rain = 0
KCO1 141333Z 16006KT 05/01 A3021 RMK A01 T00530006  RH  072%=      5-min Rain = 0
KCO1 141334Z 16005KT 05/01 A3021 RMK A01 T00540006  RH  071%=      5-min Rain = 0
KCO1 141335Z 17005KT 05/01 A3022 RMK A01 T00540006  RH  071%=      5-min Rain = 0
KCO1 141336Z 18004KT 06/01 A3022 RMK A01 T00550006  RH  071%=      5-min Rain = 0
KCO1 141337Z 18005KT 06/01 A3022 RMK A01 T00560007  RH  070%=      5-min Rain = 0
KCO1 141338Z 18004KT 06/01 A3022 RMK A01 T00570007  RH  070%=      5-min Rain = 0
KCO1 141339Z 18004KT 06/01 A3022 RMK A01 T00580007  RH  070%=      5-min Rain = 0
KCO1 141340Z 18004KT 06/01 A3022 RMK A01 T00590008  RH  070%=      5-min Rain = 0
KCO1 141341Z 18003KT 06/01 A3022 RMK A01 T00600008  RH  069%=      5-min Rain = 0
KCO1 141342Z 19002KT 06/01 A3022 RMK A01 T00610009  RH  069%=      5-min Rain = 0
KCO1 141343Z 19003KT 06/01 A3022 RMK A01 T00610009  RH  069%=      5-min Rain = 0
KCO1 141344Z 20003KT 06/01 A3022 RMK A01 T00620008  RH  069%=      5-min Rain = 0
KCO1 141345Z 19003KT 06/01 A3022 RMK A01 T00620005  RH  067%=      5-min Rain = 0
KCO1 141346Z 18003KT 06/00 A3022 RMK A01 T00630004  RH  066%=      5-min Rain = 0
KCO1 141347Z 18004KT 06/00 A3022 RMK A01 T00640003  RH  065%=      5-min Rain = 0
KCO1 141348Z 18004KT 06/00 A3022 RMK A01 T00640002  RH  065%=      5-min Rain = 0
KCO1 141349Z 18004KT 06/00 A3021 RMK A01 T00640002  RH  064%=      5-min Rain = 0
KCO1 141350Z 17004KT 06/00 A3021 RMK A01 T00640001  RH  064%=      5-min Rain = 0
KCO1 141351Z 17004KT 07/00 A3021 RMK A01 T00650001  RH  064%=      5-min Rain = 0
KCO1 141352Z 17003KT 06/00 A3021 RMK A01 T00640001  RH  064%=      5-min Rain = 0
KCO1 141353Z 18003KT 06/00 A3021 RMK A01 T00640001  RH  064%=      5-min Rain = 0
KCO1 141354Z 19003KT 06/00 A3021 RMK A01 T00640001  RH  064%=      5-min Rain = 0
KCO1 141355Z 18003KT 06/00 A3022 RMK A01 T00640001  RH  064%=      5-min Rain = 0
KCO1 141356Z 21002KT 06/00 A3022 RMK A01 T00640000  RH  064%=      5-min Rain = 0
KCO1 141357Z 22003KT 06/00 A3022 RMK A01 T00640000  RH  064%=      5-min Rain = 0
KCO1 141358Z 23002KT 07/M00 A3022 RMK A01 T00651001  RH  063%=      5-min Rain = 0
KCO1 141359Z 25001KT 07/00 A3022 RMK A01 T006700-0  RH  062%=      5-min Rain = 0
KCO1 141400Z 25002KT 07/00 A3022 RMK A01 T006800-0  RH  062%=      5-min Rain = 0
KCO1 141401Z 24003KT 07/M00 A3022 RMK A01 T00681001  RH  061%=      5-min Rain = 0
KCO1 141402Z 24003KT 07/M00 A3022 RMK A01 T00681001  RH  061%=      5-min Rain = 0
KCO1 141403Z 25002KT 07/M00 A3021 RMK A01 T00681002  RH  061%=      5-min Rain = 0
KCO1 141404Z 24002KT 07/M00 A3021 RMK A01 T00691002  RH  060%=      5-min Rain = 0
KCO1 141405Z 23003KT 07/M00 A3021 RMK A01 T00701002  RH  060%=      5-min Rain = 0
KCO1 141406Z 21003KT 07/M00 A3021 RMK A01 T00711003  RH  060%=      5-min Rain = 0
KCO1 141407Z 20003KT 07/M00 A3021 RMK A01 T00711003  RH  059%=      5-min Rain = 0
KCO1 141408Z 20003KT 07/M00 A3021 RMK A01 T00711004  RH  059%=      5-min Rain = 0
KCO1 141409Z 20003KT 07/M01 A302 RMK A01 T00721005  RH  058%=      5-min Rain = 0
KCO1 141410Z 20003KT 07/M01 A302 RMK A01 T00731006  RH  057%=      5-min Rain = 0
KCO1 141411Z 21003KT 07/M01 A302 RMK A01 T00731006  RH  057%=      5-min Rain = 0
KCO1 141412Z 21003KT 07/M01 A3021 RMK A01 T00741005  RH  057%=      5-min Rain = 0
KCO1 141413Z 21002KT 07/M01 A3021 RMK A01 T00741006  RH  057%=      5-min Rain = 0
KCO1 141414Z 20003KT 07/M01 A3021 RMK A01 T00741006  RH  057%=      5-min Rain = 0
KCO1 141415Z 20003KT 07/M01 A3021 RMK A01 T00731007  RH  057%=      5-min Rain = 0
KCO1 141416Z 20003KT 07/M01 A3021 RMK A01 T00731007  RH  057%=      5-min Rain = 0
KCO1 141417Z 21003KT 07/M01 A3021 RMK A01 T00731008  RH  057%=      5-min Rain = 0
KCO1 141418Z 20003KT 07/M01 A3021 RMK A01 T00731009  RH  056%=      5-min Rain = 0
KCO1 141419Z 21003KT 07/M01 A3021 RMK A01 T00731011  RH  055%=      5-min Rain = 0
KCO1 141420Z 21003KT 07/M01 A3021 RMK A01 T00731011  RH  055%=      5-min Rain = 0
KCO1 141421Z 21003KT 07/M01 A3021 RMK A01 T00731011  RH  055%=      5-min Rain = 0
KCO1 141422Z 22003KT 07/M01 A3021 RMK A01 T00741011  RH  055%=      5-min Rain = 0
KCO1 141423Z 23003KT 07/M01 A3021 RMK A01 T00741011  RH  055%=      5-min Rain = 0
KCO1 141424Z 25002KT 07/M01 A3021 RMK A01 T00741012  RH  054%=      5-min Rain = 0
KCO1 141425Z 26003KT 08/M01 A3021 RMK A01 T00751012  RH  054%=      5-min Rain = 0
KCO1 141426Z 26002KT 08/M01 A3021 RMK A01 T00751012  RH  054%=      5-min Rain = 0
KCO1 141427Z 25003KT 08/M01 A3021 RMK A01 T00751012  RH  054%=      5-min Rain = 0
KCO1 141428Z 26002KT 07/M01 A3021 RMK A01 T00741013  RH  054%=      5-min Rain = 0
KCO1 141429Z 25002KT 08/M01 A3021 RMK A01 T00751014  RH  054%=      5-min Rain = 0
KCO1 141430Z 25001KT 08/M01 A3021 RMK A01 T00751014  RH  053%=      5-min Rain = 0
KCO1 141431Z 24001KT 08/M02 A3021 RMK A01 T00751015  RH  053%=      5-min Rain = 0
KCO1 141432Z 22001KT 08/M01 A3021 RMK A01 T00761014  RH  053%=      5-min Rain = 0
KCO1 141433Z 23001KT 08/M01 A3021 RMK A01 T00761014  RH  053%=      5-min Rain = 0
KCO1 141434Z 25001KT 08/M01 A3021 RMK A01 T00771014  RH  053%=      5-min Rain = 0
KCO1 141435Z 28002KT 08/M01 A3021 RMK A01 T00781013  RH  053%=      5-min Rain = 0
KCO1 141436Z 27003KT 08/M01 A3021 RMK A01 T00781013  RH  052%=      5-min Rain = 0
KCO1 141437Z 26003KT 08/M01 A3021 RMK A01 T00791014  RH  052%=      5-min Rain = 0
KCO1 141438Z 27002KT 08/M02 A3021 RMK A01 T00791015  RH  052%=      5-min Rain = 0
KCO1 141439Z 29001KT 08/M01 A3022 RMK A01 T00791014  RH  052%=      5-min Rain = 0
KCO1 141440Z 30001KT 08/M01 A3022 RMK A01 T00801012  RH  052%=      5-min Rain = 0
KCO1 141441Z 30001KT 08/M01 A3022 RMK A01 T00801012  RH  052%=      5-min Rain = 0
KCO1 141442Z 28002KT 08/M01 A3022 RMK A01 T00811012  RH  052%=      5-min Rain = 0
KCO1 141443Z 27002KT 08/M01 A3022 RMK A01 T00811013  RH  052%=      5-min Rain = 0
KCO1 141444Z 28002KT 08/M01 A3022 RMK A01 T00811013  RH  052%=      5-min Rain = 0
KCO1 141445Z 29002KT 08/M01 A3022 RMK A01 T00811013  RH  052%=      5-min Rain = 0
KCO1 141446Z 30003KT 08/M01 A3022 RMK A01 T00811014  RH  051%=      5-min Rain = 0
KCO1 141447Z 30002KT 08/M01 A3022 RMK A01 T00811014  RH  051%=      5-min Rain = 0
KCO1 141448Z 32001KT 08/M02 A3022 RMK A01 T00821015  RH  050%=      5-min Rain = 0
KCO1 141449Z 32000KT 08/M01 A3022 RMK A01 T00821014  RH  051%=      5-min Rain = 0
KCO1 141450Z 31000KT 08/M01 A3022 RMK A01 T00831012  RH  051%=      5-min Rain = 0
KCO1 141451Z 00000KT 08/M01 A3022 RMK A01 T00831011  RH  051%=      5-min Rain = 0
KCO1 141452Z 26000KT 08/M01 A3022 RMK A01 T00841011  RH  051%=      5-min Rain = 0
KCO1 141453Z 26000KT 08/M01 A3022 RMK A01 T00841013  RH  051%=      5-min Rain = 0
KCO1 141454Z 26000KT 08/M01 A3022 RMK A01 T00841014  RH  050%=      5-min Rain = 0
KCO1 141455Z 28000KT 08/M01 A3022 RMK A01 T00841013  RH  050%=      5-min Rain = 0
KCO1 141456Z 00000KT 09/M01 A3022 RMK A01 T00851013  RH  050%=      5-min Rain = 0
KCO1 141457Z 00000KT 09/M01 A3022 RMK A01 T00851013  RH  050%=      5-min Rain = 0
KCO1 141458Z 00000KT 09/M01 A3022 RMK A01 T00861012  RH  050%=      5-min Rain = 0
KCO1 141459Z 12000KT 09/M01 A3022 RMK A01 T00871012  RH  050%=      5-min Rain = 0
KCO1 141500Z 13001KT 09/M01 A3022 RMK A01 T00881011  RH  050%=      5-min Rain = 0
KCO1 141501Z 12001KT 09/M01 A3022 RMK A01 T00891013  RH  049%=      5-min Rain = 0
KCO1 141502Z 11001KT 09/M01 A3022 RMK A01 T00891014  RH  048%=      5-min Rain = 0
KCO1 141503Z 12001KT 09/M01 A3022 RMK A01 T00891014  RH  048%=      5-min Rain = 0
KCO1 141504Z 08002KT 09/M01 A3022 RMK A01 T00901014  RH  048%=      5-min Rain = 0
KCO1 141505Z 08002KT 09/M01 A3022 RMK A01 T00901011  RH  049%=      5-min Rain = 0
KCO1 141506Z 08002KT 09/M01 A3022 RMK A01 T00901011  RH  049%=      5-min Rain = 0
KCO1 141507Z 09002KT 09/M01 A3022 RMK A01 T00901011  RH  049%=      5-min Rain = 0
KCO1 141508Z 11002KT 09/M01 A3022 RMK A01 T00901011  RH  049%=      5-min Rain = 0
KCO1 141509Z 12002KT 09/M01 A3022 RMK A01 T00901010  RH  049%=      5-min Rain = 0
KCO1 141510Z 12001KT 09/M01 A3022 RMK A01 T00901010  RH  049%=      5-min Rain = 0
KCO1 141511Z 13001KT 09/M01 A3022 RMK A01 T00911010  RH  049%=      5-min Rain = 0
KCO1 141512Z 14001KT 09/M01 A3022 RMK A01 T00921010  RH  049%=      5-min Rain = 0
KCO1 141513Z 12001KT 09/M01 A3022 RMK A01 T00931012  RH  048%=      5-min Rain = 0
KCO1 141514Z 10001KT 09/M01 A3022 RMK A01 T00931012  RH  048%=      5-min Rain = 0
KCO1 141515Z 12000KT 09/M01 A3022 RMK A01 T00941011  RH  048%=      5-min Rain = 0
KCO1 141516Z 06001KT 10/M01 A3022 RMK A01 T00951010  RH  048%=      5-min Rain = 0
KCO1 141517Z 06000KT 10/M01 A3022 RMK A01 T00961011  RH  047%=      5-min Rain = 0
KCO1 141518Z 00000KT 10/M01 A3022 RMK A01 T00961012  RH  047%=      5-min Rain = 0
KCO1 141519Z 31000KT 10/M01 A3022 RMK A01 T00971012  RH  047%=      5-min Rain = 0
KCO1 141520Z 31001KT 10/M01 A3022 RMK A01 T00971012  RH  047%=      5-min Rain = 0
KCO1 141521Z 33001KT 10/M01 A3022 RMK A01 T00971011  RH  047%=      5-min Rain = 0
KCO1 141522Z 34000KT 10/M01 A3022 RMK A01 T00971010  RH  047%=      5-min Rain = 0
KCO1 141523Z 01000KT 10/M01 A3022 RMK A01 T00971011  RH  047%=      5-min Rain = 0
KCO1 141524Z 02001KT 10/M01 A3022 RMK A01 T00971010  RH  047%=      5-min Rain = 0
KCO1 141525Z 36001KT 10/M01 A3022 RMK A01 T00971010  RH  047%=      5-min Rain = 0
KCO1 141526Z 00001KT 10/M01 A3022 RMK A01 T00981011  RH  047%=      5-min Rain = 0
KCO1 141527Z 00001KT 10/M01 A3022 RMK A01 T00971011  RH  047%=      5-min Rain = 0
KCO1 141528Z 35001KT 10/M01 A3022 RMK A01 T00981011  RH  047%=      5-min Rain = 0
KCO1 141529Z 35001KT 10/M01 A3023 RMK A01 T00981012  RH  046%=      5-min Rain = 0
KCO1 141530Z 00000KT 10/M01 A3023 RMK A01 T00991013  RH  046%=      5-min Rain = 0
KCO1 141531Z 04000KT 10/M01 A3023 RMK A01 T00991012  RH  046%=      5-min Rain = 0
KCO1 141532Z 03001KT 10/M01 A3023 RMK A01 T01001012  RH  046%=      5-min Rain = 0
KCO1 141533Z 01001KT 10/M01 A3023 RMK A01 T01001012  RH  046%=      5-min Rain = 0
KCO1 141534Z 01001KT 10/M01 A3022 RMK A01 T01001013  RH  045%=      5-min Rain = 0
KCO1 141535Z 01001KT 10/M01 A3022 RMK A01 T01001012  RH  046%=      5-min Rain = 0
KCO1 141536Z 03001KT 10/M01 A3022 RMK A01 T01011011  RH  046%=      5-min Rain = 0
KCO1 141537Z 01002KT 10/M01 A3022 RMK A01 T01011011  RH  046%=      5-min Rain = 0
KCO1 141538Z 01002KT 10/M01 A3022 RMK A01 T01011011  RH  046%=      5-min Rain = 0
KCO1 141539Z 00003KT 10/M01 A3022 RMK A01 T01011010  RH  046%=      5-min Rain = 0
KCO1 141540Z 36003KT 10/M01 A3022 RMK A01 T01011008  RH  047%=      5-min Rain = 0
KCO1 141541Z 35003KT 10/M01 A3022 RMK A01 T01011008  RH  047%=      5-min Rain = 0
KCO1 141542Z 35002KT 10/M01 A3022 RMK A01 T01011007  RH  047%=      5-min Rain = 0
KCO1 141543Z 00001KT 10/M01 A3022 RMK A01 T01011007  RH  047%=      5-min Rain = 0
KCO1 141544Z 01001KT 10/M01 A3023 RMK A01 T01001007  RH  047%=      5-min Rain = 0
KCO1 141545Z 01001KT 10/M01 A3023 RMK A01 T01011007  RH  047%=      5-min Rain = 0
KCO1 141546Z 01000KT 10/M01 A3022 RMK A01 T01011007  RH  047%=      5-min Rain = 0
KCO1 141547Z 33001KT 10/M01 A3023 RMK A01 T01021007  RH  047%=      5-min Rain = 0
KCO1 141548Z 33001KT 10/M01 A3023 RMK A01 T01031007  RH  046%=      5-min Rain = 0
KCO1 141549Z 33001KT 10/M01 A3023 RMK A01 T01031008  RH  046%=      5-min Rain = 0
KCO1 141550Z 33002KT 10/M01 A3023 RMK A01 T01031008  RH  046%=      5-min Rain = 0
KCO1 141551Z 30002KT 10/M01 A3023 RMK A01 T01031006  RH  046%=      5-min Rain = 0
KCO1 141552Z 31003KT 10/M01 A3023 RMK A01 T01041006  RH  046%=      5-min Rain = 0
KCO1 141553Z 31003KT 11/M01 A3023 RMK A01 T01051006  RH  046%=      5-min Rain = 0
KCO1 141554Z 31003KT 10/M01 A3023 RMK A01 T01041006  RH  046%=      5-min Rain = 0
KCO1 141555Z 32002KT 10/M01 A3022 RMK A01 T01041005  RH  047%=      5-min Rain = 0
KCO1 141556Z 32002KT 10/M01 A3022 RMK A01 T01041005  RH  047%=      5-min Rain = 0
KCO1 141557Z 32002KT 11/M01 A3022 RMK A01 T01051005  RH  046%=      5-min Rain = 0
KCO1 141558Z 32003KT 11/M01 A3022 RMK A01 T01051006  RH  046%=      5-min Rain = 0
KCO1 141559Z 33003KT 11/M00 A3022 RMK A01 T01051004  RH  047%=      5-min Rain = 0
KCO1 141600Z 34003KT 11/M00 A3022 RMK A01 T01061002  RH  047%=      5-min Rain = 0
KCO1 141601Z 34003KT 11/M00 A3022 RMK A01 T01061002  RH  047%=      5-min Rain = 0
KCO1 141602Z 33003KT 11/00 A3022 RMK A01 T01070001  RH  048%=      5-min Rain = 0
KCO1 141603Z 34003KT 11/00 A3022 RMK A01 T01080001  RH  048%=      5-min Rain = 0
KCO1 141604Z 33003KT 11/00 A3022 RMK A01 T01070001  RH  048%=      5-min Rain = 0
KCO1 141605Z 32003KT 11/00 A3022 RMK A01 T01070001  RH  048%=      5-min Rain = 0
KCO1 141606Z 32003KT 11/00 A3022 RMK A01 T01070002  RH  048%=      5-min Rain = 0
KCO1 141607Z 33002KT 11/00 A3022 RMK A01 T01070003  RH  049%=      5-min Rain = 0
KCO1 141608Z 32002KT 11/01 A3023 RMK A01 T01080005  RH  049%=      5-min Rain = 0
KCO1 141609Z 31002KT 11/01 A3023 RMK A01 T01090006  RH  049%=      5-min Rain = 0
KCO1 141610Z 32002KT 11/01 A3023 RMK A01 T01100006  RH  049%=      5-min Rain = 0
KCO1 141611Z 33003KT 11/01 A3023 RMK A01 T01100006  RH  049%=      5-min Rain = 0
KCO1 141612Z 33002KT 11/01 A3023 RMK A01 T01100006  RH  049%=      5-min Rain = 0
KCO1 141613Z 33002KT 11/01 A3023 RMK A01 T01100007  RH  049%=      5-min Rain = 0
KCO1 141614Z 32003KT 11/01 A3023 RMK A01 T01110007  RH  049%=      5-min Rain = 0
KCO1 141615Z 33003KT 11/01 A3023 RMK A01 T01110006  RH  049%=      5-min Rain = 0
KCO1 141616Z 32003KT 11/01 A3023 RMK A01 T01110008  RH  049%=      5-min Rain = 0
KCO1 141617Z 32004KT 11/01 A3023 RMK A01 T01100008  RH  049%=      5-min Rain = 0
KCO1 141618Z 31003KT 11/01 A3023 RMK A01 T01110009  RH  049%=      5-min Rain = 0
KCO1 141619Z 32003KT 11/01 A3023 RMK A01 T01120009  RH  049%=      5-min Rain = 0
KCO1 141620Z 32004KT 11/01 A3023 RMK A01 T01120009  RH  049%=      5-min Rain = 0
KCO1 141621Z 32003KT 11/01 A3023 RMK A01 T01120009  RH  049%=      5-min Rain = 0
KCO1 141622Z 33003KT 11/01 A3023 RMK A01 T01120010  RH  049%=      5-min Rain = 0
KCO1 141623Z 32004KT 11/01 A3023 RMK A01 T01120010  RH  049%=      5-min Rain = 0
KCO1 141624Z 33003KT 11/01 A3023 RMK A01 T01120010  RH  049%=      5-min Rain = 0
KCO1 141625Z 32002KT 11/01 A3023 RMK A01 T01120010  RH  049%=      5-min Rain = 0
KCO1 141626Z 33003KT 11/01 A3023 RMK A01 T01120010  RH  049%=      5-min Rain = 0
KCO1 141627Z 33002KT 11/01 A3022 RMK A01 T01120010  RH  049%=      5-min Rain = 0
KCO1 141628Z 00002KT 11/01 A3022 RMK A01 T01120011  RH  050%=      5-min Rain = 0
KCO1 141629Z 00002KT 11/01 A3022 RMK A01 T01130011  RH  050%=      5-min Rain = 0
KCO1 141630Z 03002KT 11/01 A3022 RMK A01 T01140013  RH  050%=      5-min Rain = 0
KCO1 141631Z 04002KT 11/01 A3022 RMK A01 T01140012  RH  049%=      5-min Rain = 0
KCO1 141632Z 05002KT 11/01 A3022 RMK A01 T01140012  RH  049%=      5-min Rain = 0
KCO1 141633Z 03002KT 12/01 A3022 RMK A01 T01150012  RH  049%=      5-min Rain = 0
KCO1 141634Z 03001KT 12/01 A3022 RMK A01 T01160012  RH  049%=      5-min Rain = 0
KCO1 141635Z 00002KT 12/01 A3022 RMK A01 T01160012  RH  049%=      5-min Rain = 0
KCO1 141636Z 34002KT 12/01 A3022 RMK A01 T01170014  RH  049%=      5-min Rain = 0
KCO1 141637Z 34002KT 12/01 A3022 RMK A01 T01180014  RH  049%=      5-min Rain = 0
KCO1 141638Z 34003KT 12/01 A3022 RMK A01 T01190014  RH  049%=      5-min Rain = 0
KCO1 141639Z 34002KT 12/01 A3022 RMK A01 T01190014  RH  049%=      5-min Rain = 0
KCO1 141640Z 36003KT 12/02 A3022 RMK A01 T01190015  RH  049%=      5-min Rain = 0
KCO1 141641Z 35002KT 12/01 A3022 RMK A01 T01190014  RH  048%=      5-min Rain = 0
KCO1 141642Z 36002KT 12/02 A3022 RMK A01 T01200015  RH  049%=      5-min Rain = 0
KCO1 141643Z 36002KT 12/02 A3022 RMK A01 T01220018  RH  049%=      5-min Rain = 0
KCO1 141644Z 34003KT 13/02 A3022 RMK A01 T01250019  RH  049%=      5-min Rain = 0
KCO1 141645Z 33003KT 13/02 A3022 RMK A01 T01250017  RH  048%=      5-min Rain = 0
KCO1 141646Z 33002KT 13/02 A3022 RMK A01 T01250017  RH  048%=      5-min Rain = 0
KCO1 141647Z 33002KT 13/02 A3022 RMK A01 T01250018  RH  048%=      5-min Rain = 0
KCO1 141648Z 33002KT 13/02 A3022 RMK A01 T01260019  RH  048%=      5-min Rain = 0
KCO1 141649Z 35002KT 13/02 A3022 RMK A01 T01270020  RH  048%=      5-min Rain = 0
KCO1 141650Z 01003KT 13/02 A3022 RMK A01 T01280019  RH  048%=      5-min Rain = 0
KCO1 141651Z 03003KT 13/02 A3022 RMK A01 T01290018  RH  047%=      5-min Rain = 0
KCO1 141652Z 03002KT 13/02 A3022 RMK A01 T01290017  RH  047%=      5-min Rain = 0
KCO1 141653Z 02002KT 13/02 A3022 RMK A01 T01290018  RH  047%=      5-min Rain = 0
KCO1 141654Z 35003KT 13/02 A3022 RMK A01 T01290019  RH  047%=      5-min Rain = 0
KCO1 141655Z 35002KT 13/02 A3022 RMK A01 T01290019  RH  047%=      5-min Rain = 0
KCO1 141656Z 34002KT 13/02 A3022 RMK A01 T01290019  RH  047%=      5-min Rain = 0
KCO1 141657Z 33001KT 13/02 A3022 RMK A01 T01290020  RH  047%=      5-min Rain = 0
KCO1 141658Z 32003KT 13/02 A3022 RMK A01 T01300020  RH  047%=      5-min Rain = 0
KCO1 141659Z 32003KT 13/02 A3022 RMK A01 T01310021  RH  047%=      5-min Rain = 0
KCO1 141700Z 34002KT 13/02 A3022 RMK A01 T01310021  RH  047%=      5-min Rain = 0
KCO1 141701Z 31002KT 13/02 A3022 RMK A01 T01300022  RH  048%=      5-min Rain = 0
KCO1 141702Z 32002KT 13/02 A3022 RMK A01 T01310023  RH  048%=      5-min Rain = 0
KCO1 141703Z 01003KT 13/03 A3022 RMK A01 T01340025  RH  048%=      5-min Rain = 0
KCO1 141704Z 02002KT 14/03 A3022 RMK A01 T01350026  RH  048%=      5-min Rain = 0
KCO1 141705Z 02002KT 14/03 A3022 RMK A01 T01360026  RH  047%=      5-min Rain = 0
KCO1 141706Z 03002KT 14/03 A3022 RMK A01 T01360025  RH  047%=      5-min Rain = 0
KCO1 141707Z 03002KT 14/03 A3022 RMK A01 T01360026  RH  047%=      5-min Rain = 0
KCO1 141708Z 03002KT 14/03 A3021 RMK A01 T01370026  RH  047%=      5-min Rain = 0
KCO1 141709Z 03003KT 14/03 A3021 RMK A01 T01380027  RH  047%=      5-min Rain = 0
KCO1 141710Z 03003KT 14/03 A3021 RMK A01 T01390029  RH  047%=      5-min Rain = 0
KCO1 141711Z 03001KT 14/03 A3021 RMK A01 T01390027  RH  047%=      5-min Rain = 0
KCO1 141712Z 36001KT 14/03 A3021 RMK A01 T01400028  RH  047%=      5-min Rain = 0
KCO1 141713Z 03003KT 14/03 A3021 RMK A01 T01410029  RH  047%=      5-min Rain = 0
KCO1 141714Z 03002KT 14/03 A3021 RMK A01 T01410026  RH  046%=      5-min Rain = 0
KCO1 141715Z 03001KT 14/03 A3021 RMK A01 T01420026  RH  046%=      5-min Rain = 0
KCO1 141716Z 03001KT 14/03 A3021 RMK A01 T01430026  RH  045%=      5-min Rain = 0
KCO1 141717Z 04003KT 14/03 A3022 RMK A01 T01440027  RH  045%=      5-min Rain = 0
KCO1 141718Z 05002KT 15/03 A3022 RMK A01 T01450027  RH  045%=      5-min Rain = 0
KCO1 141719Z 08002KT 15/03 A3021 RMK A01 T01480029  RH  045%=      5-min Rain = 0
KCO1 141720Z 08004KT 15/03 A3021 RMK A01 T01520030  RH  044%=      5-min Rain = 0
KCO1 141721Z 07003KT 16/03 A3021 RMK A01 T01550028  RH  043%=      5-min Rain = 0
KCO1 141722Z 06002KT 16/03 A3021 RMK A01 T01560025  RH  041%=      5-min Rain = 0
KCO1 141723Z 03002KT 16/02 A3021 RMK A01 T01560024  RH  041%=      5-min Rain = 0
KCO1 141724Z 02001KT 16/03 A3021 RMK A01 T01570025  RH  041%=      5-min Rain = 0
KCO1 141725Z 00000KT 16/03 A3021 RMK A01 T01590027  RH  041%=      5-min Rain = 0
KCO1 141726Z 09001KT 16/03 A3021 RMK A01 T01600027  RH  041%=      5-min Rain = 0
KCO1 141727Z 04001KT 16/03 A3021 RMK A01 T01620028  RH  041%=      5-min Rain = 0
KCO1 141728Z 03002KT 16/03 A3021 RMK A01 T01630028  RH  040%=      5-min Rain = 0
KCO1 141729Z 06003KT 16/03 A3021 RMK A01 T01620028  RH  041%=      5-min Rain = 0
KCO1 141730Z 05004KT 16/03 A3021 RMK A01 T01630027  RH  040%=      5-min Rain = 0
KCO1 141731Z 05003KT 16/02 A3021 RMK A01 T01630021  RH  038%=      5-min Rain = 0
KCO1 141732Z 05002KT 16/02 A3021 RMK A01 T01620023  RH  039%=      5-min Rain = 0
KCO1 141733Z 05001KT 16/03 A3021 RMK A01 T01630026  RH  040%=      5-min Rain = 0
KCO1 141734Z 06002KT 17/03 A3021 RMK A01 T01650027  RH  040%=      5-min Rain = 0
KCO1 141735Z 05002KT 17/03 A3021 RMK A01 T01660026  RH  039%=      5-min Rain = 0
KCO1 141736Z 06002KT 17/03 A3021 RMK A01 T01670027  RH  039%=      5-min Rain = 0
KCO1 141737Z 10001KT 17/03 A3021 RMK A01 T01680027  RH  039%=      5-min Rain = 0
KCO1 141738Z 04002KT 17/03 A3021 RMK A01 T01700028  RH  038%=      5-min Rain = 0
KCO1 141739Z 03003KT 17/03 A3021 RMK A01 T01710027  RH  038%=      5-min Rain = 0
KCO1 141740Z 01003KT 17/03 A3021 RMK A01 T01690026  RH  038%=      5-min Rain = 0
KCO1 141741Z 03003KT 17/03 A3021 RMK A01 T01680025  RH  038%=      5-min Rain = 0
KCO1 141742Z 04004KT 17/03 A302 RMK A01 T01660026  RH  039%=      5-min Rain = 0
KCO1 141743Z 05003KT 17/03 A3021 RMK A01 T01660026  RH  039%=      5-min Rain = 0
KCO1 141744Z 03002KT 17/03 A302 RMK A01 T01660026  RH  039%=      5-min Rain = 0
KCO1 141745Z 06002KT 17/03 A302 RMK A01 T01670025  RH  039%=      5-min Rain = 0
KCO1 141746Z 07003KT 17/02 A302 RMK A01 T01680023  RH  038%=      5-min Rain = 0
KCO1 141747Z 07001KT 17/02 A302 RMK A01 T01680022  RH  037%=      5-min Rain = 0
KCO1 141748Z 07002KT 17/02 A302 RMK A01 T01690022  RH  037%=      5-min Rain = 0
KCO1 141749Z 06003KT 17/02 A302 RMK A01 T01710024  RH  037%=      5-min Rain = 0
KCO1 141750Z 06002KT 17/02 A302 RMK A01 T01710022  RH  037%=      5-min Rain = 0
KCO1 141751Z 04002KT 17/02 A302 RMK A01 T01700021  RH  037%=      5-min Rain = 0
KCO1 141752Z 01002KT 17/02 A302 RMK A01 T01710022  RH  037%=      5-min Rain = 0
KCO1 141753Z 02002KT 17/02 A302 RMK A01 T01720023  RH  037%=      5-min Rain = 0
KCO1 141754Z 36002KT 17/02 A302 RMK A01 T01730021  RH  036%=      5-min Rain = 0
KCO1 141755Z 36003KT 17/02 A3019 RMK A01 T01730021  RH  036%=      5-min Rain = 0
KCO1 141756Z 01001KT 17/02 A3019 RMK A01 T01720023  RH  037%=      5-min Rain = 0
KCO1 141757Z 08001KT 17/02 A3019 RMK A01 T01720024  RH  037%=      5-min Rain = 0
KCO1 141758Z 06002KT 17/03 A3019 RMK A01 T01740025  RH  037%=      5-min Rain = 0
KCO1 141759Z 05003KT 18/03 A3019 RMK A01 T01750026  RH  037%=      5-min Rain = 0
KCO1 141800Z 06002KT 18/03 A3019 RMK A01 T01760025  RH  036%=      5-min Rain = 0
KCO1 141801Z 04002KT 18/03 A3019 RMK A01 T01780025  RH  036%=      5-min Rain = 0
KCO1 141802Z 02002KT 18/03 A3019 RMK A01 T01780025  RH  036%=      5-min Rain = 0
KCO1 141803Z 07002KT 18/03 A3019 RMK A01 T01780025  RH  036%=      5-min Rain = 0
KCO1 141804Z 04001KT 18/03 A3019 RMK A01 T01790026  RH  036%=      5-min Rain = 0
KCO1 141805Z 06002KT 18/03 A3019 RMK A01 T01790027  RH  036%=      5-min Rain = 0
KCO1 141806Z 08003KT 18/03 A3019 RMK A01 T01800026  RH  036%=      5-min Rain = 0
KCO1 141807Z 10002KT 18/03 A3019 RMK A01 T01800025  RH  035%=      5-min Rain = 0
KCO1 141808Z 06003KT 18/03 A3019 RMK A01 T01800025  RH  035%=      5-min Rain = 0
KCO1 141809Z 08004KT 18/02 A3019 RMK A01 T01800024  RH  035%=      5-min Rain = 0
KCO1 141810Z 08004KT 18/03 A3019 RMK A01 T01790025  RH  036%=      5-min Rain = 0
KCO1 141811Z 07003KT 18/03 A3019 RMK A01 T01790025  RH  036%=      5-min Rain = 0
KCO1 141812Z 07004KT 18/03 A3019 RMK A01 T01810026  RH  036%=      5-min Rain = 0
KCO1 141813Z 08004KT 18/03 A3019 RMK A01 T01810027  RH  036%=      5-min Rain = 0
KCO1 141814Z 10005KT 18/03 A3019 RMK A01 T01820026  RH  035%=      5-min Rain = 0
KCO1 141815Z 11003KT 18/03 A3019 RMK A01 T01830025  RH  035%=      5-min Rain = 0
KCO1 141816Z 10003KT 18/02 A3019 RMK A01 T01830024  RH  035%=      5-min Rain = 0
KCO1 141817Z 08003KT 18/03 A3019 RMK A01 T01830025  RH  035%=      5-min Rain = 0
KCO1 141818Z 08003KT 19/03 A3019 RMK A01 T01860029  RH  035%=      5-min Rain = 0
KCO1 141819Z 10004KT 19/03 A3018 RMK A01 T01880026  RH  034%=      5-min Rain = 0
KCO1 141820Z 13005KT 19/02 A3018 RMK A01 T01900020  RH  032%=      5-min Rain = 0
KCO1 141821Z 12007KT 19/02 A3018 RMK A01 T01910016  RH  031%=      5-min Rain = 0
KCO1 141822Z 12006KT 19/01 A3018 RMK A01 T01920014  RH  030%=      5-min Rain = 0
KCO1 141823Z 12005KT 19/01 A3018 RMK A01 T01940014  RH  030%=      5-min Rain = 0
KCO1 141824Z 12004KT 20/01 A3018 RMK A01 T01950014  RH  030%=      5-min Rain = 0
KCO1 141825Z 12004KT 20/01 A3018 RMK A01 T01960013  RH  029%=      5-min Rain = 0
KCO1 141826Z 10004KT 20/01 A3018 RMK A01 T01950013  RH  030%=      5-min Rain = 0
KCO1 141827Z 11004KT 20/02 A3018 RMK A01 T01950016  RH  030%=      5-min Rain = 0
KCO1 141828Z 10006KT 20/02 A3018 RMK A01 T01970017  RH  030%=      5-min Rain = 0
KCO1 141829Z 11004KT 20/02 A3017 RMK A01 T01950016  RH  030%=      5-min Rain = 0
KCO1 141830Z 13005KT 20/02 A3017 RMK A01 T01950016  RH  030%=      5-min Rain = 0
KCO1 141831Z 11007KT 20/02 A3017 RMK A01 T01960017  RH  030%=      5-min Rain = 0
KCO1 141832Z 11007KT 20/02 A3017 RMK A01 T01970017  RH  030%=      5-min Rain = 0
KCO1 141833Z 11005KT 20/02 A3017 RMK A01 T01970017  RH  030%=      5-min Rain = 0
KCO1 141834Z 10005KT 20/02 A3017 RMK A01 T01980018  RH  030%=      5-min Rain = 0
KCO1 141835Z 09004KT 20/02 A3017 RMK A01 T01990018  RH  030%=      5-min Rain = 0
KCO1 141836Z 10005KT 20/02 A3017 RMK A01 T02000018  RH  030%=      5-min Rain = 0
KCO1 141837Z 10007KT 20/02 A3017 RMK A01 T02010018  RH  030%=      5-min Rain = 0
KCO1 141838Z 09006KT 20/02 A3017 RMK A01 T02010019  RH  030%=      5-min Rain = 0
KCO1 141839Z 10005KT 20/02 A3017 RMK A01 T01980018  RH  030%=      5-min Rain = 0
KCO1 141840Z 10006KT 20/02 A3017 RMK A01 T01980020  RH  030%=      5-min Rain = 0
KCO1 141841Z 10006KT 20/02 A3017 RMK A01 T01990020  RH  030%=      5-min Rain = 0
KCO1 141842Z 09005KT 20/02 A3017 RMK A01 T02010022  RH  030%=      5-min Rain = 0
KCO1 141843Z 09004KT 20/02 A3017 RMK A01 T01990023  RH  031%=      5-min Rain = 0
KCO1 141844Z 09005KT 20/03 A3017 RMK A01 T02000025  RH  031%=      5-min Rain = 0
KCO1 141845Z 09006KT 20/03 A3017 RMK A01 T02010026  RH  031%=      5-min Rain = 0
KCO1 141846Z 08003KT 20/03 A3017 RMK A01 T02020025  RH  031%=      5-min Rain = 0
KCO1 141847Z 10003KT 20/03 A3017 RMK A01 T02010025  RH  031%=      5-min Rain = 0
KCO1 141848Z 08005KT 20/03 A3017 RMK A01 T02020027  RH  031%=      5-min Rain = 0
KCO1 141849Z 08005KT 20/03 A3017 RMK A01 T02040026  RH  031%=      5-min Rain = 0
KCO1 141850Z 10005KT 20/03 A3017 RMK A01 T02040025  RH  030%=      5-min Rain = 0
KCO1 141851Z 09005KT 20/03 A3017 RMK A01 T02040025  RH  031%=      5-min Rain = 0
KCO1 141852Z 09008KT 21/03 A3016 RMK A01 T02050026  RH  031%=      5-min Rain = 0
KCO1 141853Z 10007KT 21/03 A3016 RMK A01 T02060025  RH  030%=      5-min Rain = 0
KCO1 141854Z 10006KT 21/03 A3016 RMK A01 T02060025  RH  030%=      5-min Rain = 0
KCO1 141855Z 10005KT 21/03 A3016 RMK A01 T02050025  RH  030%=      5-min Rain = 0
KCO1 141856Z 11004KT 21/03 A3016 RMK A01 T02050026  RH  030%=      5-min Rain = 0
KCO1 141857Z 08004KT 21/03 A3016 RMK A01 T02080026  RH  030%=      5-min Rain = 0
KCO1 141858Z 06004KT 21/03 A3016 RMK A01 T02110028  RH  030%=      5-min Rain = 0
KCO1 141859Z 09005KT 21/03 A3016 RMK A01 T02130029  RH  030%=      5-min Rain = 0
KCO1 141900Z 10006KT 21/03 A3016 RMK A01 T02130026  RH  029%=      5-min Rain = 0
KCO1 141901Z 09004KT 22/03 A3016 RMK A01 T02150027  RH  029%=      5-min Rain = 0
KCO1 141902Z 09003KT 22/03 A3016 RMK A01 T02150026  RH  029%=      5-min Rain = 0
KCO1 141903Z 10002KT 21/03 A3015 RMK A01 T02140026  RH  029%=      5-min Rain = 0
KCO1 141904Z 10003KT 22/03 A3015 RMK A01 T02150028  RH  029%=      5-min Rain = 0
KCO1 141905Z 07005KT 22/03 A3015 RMK A01 T02160028  RH  029%=      5-min Rain = 0
KCO1 141906Z 07006KT 22/03 A3015 RMK A01 T02150027  RH  029%=      5-min Rain = 0
KCO1 141907Z 08007KT 21/03 A3015 RMK A01 T02140026  RH  029%=      5-min Rain = 0
KCO1 141908Z 08006KT 21/03 A3015 RMK A01 T02120027  RH  029%=      5-min Rain = 0
KCO1 141909Z 08003KT 21/03 A3015 RMK A01 T02110027  RH  030%=      5-min Rain = 0
KCO1 141910Z 08006KT 21/03 A3015 RMK A01 T02130029  RH  030%=      5-min Rain = 0
KCO1 141911Z 08005KT 21/03 A3015 RMK A01 T02140030  RH  030%=      5-min Rain = 0
KCO1 141912Z 10005KT 22/03 A3015 RMK A01 T02170031  RH  029%=      5-min Rain = 0
KCO1 141913Z 12004KT 22/03 A3015 RMK A01 T02170029  RH  029%=      5-min Rain = 0
KCO1 141914Z 09006KT 22/03 A3014 RMK A01 T02170032  RH  030%=      5-min Rain = 0
KCO1 141915Z 06007KT 22/04 A3014 RMK A01 T02190036  RH  030%=      5-min Rain = 0
KCO1 141916Z 07007KT 22/04 A3014 RMK A01 T02200036  RH  030%=      5-min Rain = 0
KCO1 141917Z 08005KT 22/04 A3014 RMK A01 T02200036  RH  030%=      5-min Rain = 0
KCO1 141918Z 09004KT 22/04 A3014 RMK A01 T02190035  RH  030%=      5-min Rain = 0
KCO1 141919Z 07006KT 22/04 A3014 RMK A01 T02190037  RH  030%=      5-min Rain = 0
KCO1 141920Z 08007KT 22/04 A3014 RMK A01 T02210038  RH  030%=      5-min Rain = 0
KCO1 141921Z 07006KT 22/04 A3014 RMK A01 T02220038  RH  030%=      5-min Rain = 0
KCO1 141922Z 07006KT 22/04 A3014 RMK A01 T02230039  RH  030%=      5-min Rain = 0
KCO1 141923Z 06005KT 22/04 A3014 RMK A01 T02240040  RH  030%=      5-min Rain = 0
KCO1 141924Z 06006KT 23/04 A3013 RMK A01 T02250040  RH  030%=      5-min Rain = 0
KCO1 141925Z 06007KT 23/04 A3013 RMK A01 T02260041  RH  030%=      5-min Rain = 0
KCO1 141926Z 04006KT 23/04 A3013 RMK A01 T02270041  RH  030%=      5-min Rain = 0
KCO1 141927Z 06005KT 23/04 A3013 RMK A01 T02280042  RH  030%=      5-min Rain = 0
KCO1 141928Z 06006KT 23/04 A3013 RMK A01 T02300043  RH  029%=      5-min Rain = 0
KCO1 141929Z 06005KT 23/04 A3013 RMK A01 T02320042  RH  029%=      5-min Rain = 0
KCO1 141930Z 06005KT 23/04 A3013 RMK A01 T02340042  RH  029%=      5-min Rain = 0
KCO1 141931Z 07007KT 24/04 A3013 RMK A01 T02350040  RH  028%=      5-min Rain = 0
KCO1 141932Z 07005KT 24/04 A3013 RMK A01 T02370039  RH  028%=      5-min Rain = 0
KCO1 141933Z 06006KT 24/04 A3012 RMK A01 T02400043  RH  028%=      5-min Rain = 0
KCO1 141934Z 07006KT 24/04 A3012 RMK A01 T02440044  RH  027%=      5-min Rain = 0
KCO1 141935Z 06006KT 25/05 A3012 RMK A01 T02460045  RH  027%=      5-min Rain = 0
KCO1 141936Z 07005KT 25/04 A3012 RMK A01 T02480043  RH  027%=      5-min Rain = 0
KCO1 141937Z 07005KT 25/04 A3012 RMK A01 T02490044  RH  027%=      5-min Rain = 0
KCO1 141938Z 08008KT 25/04 A3012 RMK A01 T02510042  RH  026%=      5-min Rain = 0
KCO1 141939Z 09007KT 25/04 A3012 RMK A01 T02480038  RH  026%=      5-min Rain = 0
KCO1 141940Z 09006KT 25/04 A3012 RMK A01 T02470037  RH  026%=      5-min Rain = 0
KCO1 141941Z 09004KT 25/04 A3012 RMK A01 T02450037  RH  026%=      5-min Rain = 0
KCO1 141942Z 07005KT 25/04 A3012 RMK A01 T02450040  RH  026%=      5-min Rain = 0
KCO1 141943Z 05005KT 25/04 A3012 RMK A01 T02480041  RH  026%=      5-min Rain = 0
KCO1 141944Z 05005KT 25/04 A3012 RMK A01 T02480040  RH  026%=      5-min Rain = 0
KCO1 141945Z 08004KT 25/04 A3011 RMK A01 T02490040  RH  026%=      5-min Rain = 0
KCO1 141946Z 06006KT 25/04 A3011 RMK A01 T02500042  RH  026%=      5-min Rain = 0
KCO1 141947Z 06006KT 25/04 A3011 RMK A01 T02520042  RH  026%=      5-min Rain = 0
KCO1 141948Z 05004KT 25/04 A3011 RMK A01 T02520043  RH  026%=      5-min Rain = 0
KCO1 141949Z 06006KT 25/04 A3011 RMK A01 T02520043  RH  026%=      5-min Rain = 0
KCO1 141950Z 05006KT 25/04 A3011 RMK A01 T02510042  RH  026%=      5-min Rain = 0
KCO1 141951Z 06004KT 25/05 A3011 RMK A01 T02520045  RH  026%=      5-min Rain = 0
KCO1 141952Z 07006KT 26/05 A3011 RMK A01 T02550045  RH  026%=      5-min Rain = 0
KCO1 141953Z 06007KT 26/04 A3011 RMK A01 T02570043  RH  025%=      5-min Rain = 0
KCO1 141954Z 04005KT 26/04 A301 RMK A01 T02560041  RH  025%=      5-min Rain = 0
KCO1 141955Z 05005KT 26/04 A301 RMK A01 T02550041  RH  025%=      5-min Rain = 0
KCO1 141956Z 06007KT 26/04 A301 RMK A01 T02550040  RH  025%=      5-min Rain = 0
KCO1 141957Z 05006KT 26/04 A301 RMK A01 T02560040  RH  025%=      5-min Rain = 0
KCO1 141958Z 05004KT 26/04 A301 RMK A01 T02570039  RH  025%=      5-min Rain = 0
KCO1 141959Z 05007KT 26/04 A301 RMK A01 T02560041  RH  025%=      5-min Rain = 0
KCO1 142000Z 06006KT 26/04 A301 RMK A01 T02580042  RH  025%=      5-min Rain = 0
KCO1 142001Z 04004KT 26/04 A301 RMK A01 T02600041  RH  024%=      5-min Rain = 0
KCO1 142002Z 04002KT 26/04 A301 RMK A01 T02590040  RH  024%=      5-min Rain = 0
KCO1 142003Z 03004KT 26/04 A301 RMK A01 T02590042  RH  025%=      5-min Rain = 0
KCO1 142004Z 10007KT 26/04 A301 RMK A01 T02630043  RH  024%=      5-min Rain = 0
KCO1 142005Z 08007KT 27/04 A301 RMK A01 T02670042  RH  023%=      5-min Rain = 0
KCO1 142006Z 08006KT 27/04 A301 RMK A01 T02680040  RH  023%=      5-min Rain = 0
KCO1 142007Z 07006KT 27/04 A301 RMK A01 T02690041  RH  023%=      5-min Rain = 0
KCO1 142008Z 07007KT 27/04 A301 RMK A01 T02690041  RH  023%=      5-min Rain = 0
KCO1 142009Z 08005KT 27/04 A301 RMK A01 T02680040  RH  023%=      5-min Rain = 0
KCO1 142010Z 07005KT 27/04 A3009 RMK A01 T02660039  RH  023%=      5-min Rain = 0
KCO1 142011Z 05005KT 27/04 A3009 RMK A01 T02660040  RH  023%=      5-min Rain = 0
KCO1 142012Z 06007KT 27/04 A3009 RMK A01 T02670042  RH  024%=      5-min Rain = 0
KCO1 142013Z 07006KT 27/04 A3009 RMK A01 T02700042  RH  023%=      5-min Rain = 0
KCO1 142014Z 06007KT 27/04 A3009 RMK A01 T02700043  RH  023%=      5-min Rain = 0
KCO1 142015Z 07006KT 27/04 A3009 RMK A01 T02720043  RH  023%=      5-min Rain = 0
KCO1 142016Z 05004KT 27/04 A3009 RMK A01 T02710043  RH  023%=      5-min Rain = 0
KCO1 142017Z 06005KT 27/04 A3009 RMK A01 T02720043  RH  023%=      5-min Rain = 0
KCO1 142018Z 07003KT 27/04 A3009 RMK A01 T02710042  RH  023%=      5-min Rain = 0
KCO1 142019Z 06004KT 27/04 A3009 RMK A01 T02710044  RH  023%=      5-min Rain = 0
KCO1 142020Z 07005KT 27/04 A3009 RMK A01 T02740044  RH  023%=      5-min Rain = 0
KCO1 142021Z 08005KT 27/04 A3009 RMK A01 T02740043  RH  023%=      5-min Rain = 0
KCO1 142022Z 10006KT 27/04 A3008 RMK A01 T02740043  RH  023%=      5-min Rain = 0
KCO1 142023Z 10006KT 28/04 A3008 RMK A01 T02750043  RH  023%=      5-min Rain = 0
KCO1 142024Z 07007KT 28/05 A3008 RMK A01 T02790046  RH  023%=      5-min Rain = 0
KCO1 142025Z 06006KT 28/05 A3008 RMK A01 T02810046  RH  022%=      5-min Rain = 0
KCO1 142026Z 07007KT 28/05 A3008 RMK A01 T02820045  RH  022%=      5-min Rain = 0
KCO1 142027Z 08007KT 28/04 A3008 RMK A01 T02820044  RH  022%=      5-min Rain = 0
KCO1 142028Z 09007KT 28/04 A3008 RMK A01 T02810044  RH  022%=      5-min Rain = 0
KCO1 142029Z 08007KT 28/05 A3008 RMK A01 T02800046  RH  022%=      5-min Rain = 0
KCO1 142030Z 09006KT 28/05 A3007 RMK A01 T02810047  RH  022%=      5-min Rain = 0
KCO1 142031Z 10010KT 28/05 A3007 RMK A01 T02830046  RH  022%=      5-min Rain = 0
KCO1 142032Z 09007KT 28/05 A3007 RMK A01 T02820045  RH  022%=      5-min Rain = 0
KCO1 142033Z 09009KT 28/05 A3007 RMK A01 T02810046  RH  022%=      5-min Rain = 0
KCO1 142034Z 10009KT 28/05 A3007 RMK A01 T02820045  RH  022%=      5-min Rain = 0
KCO1 142035Z 11006KT 28/04 A3007 RMK A01 T02820044  RH  022%=      5-min Rain = 0
KCO1 142036Z 12007KT 29/05 A3007 RMK A01 T02850047  RH  022%=      5-min Rain = 0
KCO1 142037Z 10007KT 29/05 A3007 RMK A01 T02880048  RH  022%=      5-min Rain = 0
KCO1 142038Z 08008KT 29/05 A3007 RMK A01 T02890048  RH  022%=      5-min Rain = 0
KCO1 142039Z 08008KT 29/05 A3007 RMK A01 T02870048  RH  022%=      5-min Rain = 0
KCO1 142040Z 08008KT 29/05 A3007 RMK A01 T02860048  RH  022%=      5-min Rain = 0
KCO1 142041Z 09009KT 29/05 A3007 RMK A01 T02860049  RH  022%=      5-min Rain = 0
KCO1 142042Z 11007KT 29/05 A3007 RMK A01 T02850046  RH  022%=      5-min Rain = 0
KCO1 142043Z 10008KT 28/05 A3007 RMK A01 T02840047  RH  022%=      5-min Rain = 0
KCO1 142044Z 08008KT 28/05 A3007 RMK A01 T02840047  RH  022%=      5-min Rain = 0
KCO1 142045Z 07008KT 28/05 A3007 RMK A01 T02830047  RH  022%=      5-min Rain = 0
KCO1 142046Z 07008KT 28/05 A3006 RMK A01 T02830048  RH  022%=      5-min Rain = 0
KCO1 142047Z 08005KT 28/05 A3006 RMK A01 T02830048  RH  022%=      5-min Rain = 0
KCO1 142048Z 09009KT 28/05 A3006 RMK A01 T02830048  RH  022%=      5-min Rain = 0
KCO1 142049Z 10006KT 28/05 A3006 RMK A01 T02800046  RH  022%=      5-min Rain = 0
KCO1 142050Z 08010KT 28/05 A3006 RMK A01 T02800049  RH  023%=      5-min Rain = 0
KCO1 142051Z 08009KT 28/05 A3006 RMK A01 T02830049  RH  023%=      5-min Rain = 0
KCO1 142052Z 07011KT 29/05 A3006 RMK A01 T02850049  RH  022%=      5-min Rain = 0
KCO1 142053Z 08009KT 29/05 A3006 RMK A01 T02850049  RH  022%=      5-min Rain = 0
KCO1 142054Z 07007KT 29/05 A3006 RMK A01 T02850048  RH  022%=      5-min Rain = 0
KCO1 142055Z 08007G12KT 28/05 A3006 RMK A01 T02840050  RH  022%=      5-min Rain = 0
KCO1 142056Z 11010KT 29/05 A3006 RMK A01 T02870051  RH  022%=      5-min Rain = 0
KCO1 142057Z 11010KT 29/05 A3006 RMK A01 T02910052  RH  022%=      5-min Rain = 0
KCO1 142058Z 10009KT 29/05 A3006 RMK A01 T02910049  RH  022%=      5-min Rain = 0
KCO1 142059Z 09008KT 29/05 A3006 RMK A01 T02860048  RH  022%=      5-min Rain = 0
KCO1 142100Z 10009KT 28/05 A3006 RMK A01 T02840050  RH  023%=      5-min Rain = 0
KCO1 142101Z 10008KT 28/05 A3006 RMK A01 T02840050  RH  023%=      5-min Rain = 0
KCO1 142102Z 10008KT 28/05 A3006 RMK A01 T02830049  RH  023%=      5-min Rain = 0
KCO1 142103Z 11008KT 28/05 A3005 RMK A01 T02800048  RH  023%=      5-min Rain = 0
KCO1 142104Z 10007KT 28/05 A3005 RMK A01 T02790048  RH  023%=      5-min Rain = 0
KCO1 142105Z 08008KT 28/05 A3005 RMK A01 T02780050  RH  023%=      5-min Rain = 0
KCO1 142106Z 09009KT 28/05 A3005 RMK A01 T02770050  RH  024%=      5-min Rain = 0
KCO1 142107Z 08009KT 28/05 A3005 RMK A01 T02770051  RH  024%=      5-min Rain = 0
KCO1 142108Z 08008KT 28/05 A3005 RMK A01 T02760051  RH  024%=      5-min Rain = 0
KCO1 142109Z 08007KT 28/05 A3005 RMK A01 T02770052  RH  024%=      5-min Rain = 0
KCO1 142110Z 09009KT 28/05 A3005 RMK A01 T02800053  RH  024%=      5-min Rain = 0
KCO1 142111Z 09009KT 28/05 A3005 RMK A01 T02830053  RH  023%=      5-min Rain = 0
KCO1 142112Z 07007KT 28/05 A3005 RMK A01 T02840052  RH  023%=      5-min Rain = 0
KCO1 142113Z 07008KT 29/05 A3005 RMK A01 T02850054  RH  023%=      5-min Rain = 0
KCO1 142114Z 09008KT 29/05 A3005 RMK A01 T02860054  RH  023%=      5-min Rain = 0
KCO1 142115Z 09005KT 29/05 A3005 RMK A01 T02860053  RH  023%=      5-min Rain = 0
KCO1 142116Z 09007KT 29/05 A3005 RMK A01 T02870054  RH  023%=      5-min Rain = 0
KCO1 142117Z 08007KT 29/06 A3005 RMK A01 T02890055  RH  023%=      5-min Rain = 0
KCO1 142118Z 08005KT 29/06 A3005 RMK A01 T02900056  RH  023%=      5-min Rain = 0
KCO1 142119Z 07007KT 29/06 A3005 RMK A01 T02900056  RH  023%=      5-min Rain = 0
KCO1 142120Z 06007KT 29/06 A3005 RMK A01 T02920056  RH  022%=      5-min Rain = 0
KCO1 142121Z 07007KT 29/06 A3005 RMK A01 T02920055  RH  022%=      5-min Rain = 0
KCO1 142122Z 08008KT 29/06 A3005 RMK A01 T02920055  RH  022%=      5-min Rain = 0
KCO1 142123Z 09008KT 29/05 A3005 RMK A01 T02920054  RH  022%=      5-min Rain = 0
KCO1 142124Z 08007KT 29/05 A3004 RMK A01 T02910054  RH  022%=      5-min Rain = 0
KCO1 142125Z 07009KT 29/06 A3005 RMK A01 T02910055  RH  022%=      5-min Rain = 0
KCO1 142126Z 07008KT 29/06 A3004 RMK A01 T02920055  RH  022%=      5-min Rain = 0
KCO1 142127Z 07008KT 29/05 A3004 RMK A01 T02920054  RH  022%=      5-min Rain = 0
KCO1 142128Z 08007KT 29/05 A3004 RMK A01 T02920054  RH  022%=      5-min Rain = 0
KCO1 142129Z 06007KT 29/05 A3004 RMK A01 T02910054  RH  022%=      5-min Rain = 0
KCO1 142130Z 08006KT 29/06 A3004 RMK A01 T02920057  RH  023%=      5-min Rain = 0
KCO1 142131Z 08008KT 30/06 A3004 RMK A01 T02950057  RH  022%=      5-min Rain = 0
KCO1 142132Z 07007KT 30/06 A3004 RMK A01 T02960057  RH  022%=      5-min Rain = 0
KCO1 142133Z 07008KT 30/06 A3004 RMK A01 T02970057  RH  022%=      5-min Rain = 0
KCO1 142134Z 07008KT 30/06 A3004 RMK A01 T02980057  RH  022%=      5-min Rain = 0
KCO1 142135Z 07010KT 30/06 A3003 RMK A01 T02970057  RH  022%=      5-min Rain = 0
KCO1 142136Z 06011KT 30/06 A3003 RMK A01 T02960057  RH  022%=      5-min Rain = 0
KCO1 142137Z 06009KT 30/06 A3003 RMK A01 T02960057  RH  022%=      5-min Rain = 0
KCO1 142138Z 07008KT 30/06 A3003 RMK A01 T02960056  RH  022%=      5-min Rain = 0
KCO1 142139Z 06010KT 30/06 A3003 RMK A01 T02950057  RH  022%=      5-min Rain = 0
KCO1 142140Z 05007KT 29/06 A3003 RMK A01 T02940055  RH  022%=      5-min Rain = 0
KCO1 142141Z 06008KT 29/06 A3003 RMK A01 T02930056  RH  022%=      5-min Rain = 0
KCO1 142142Z 07009KT 29/05 A3003 RMK A01 T02930054  RH  022%=      5-min Rain = 0
KCO1 142143Z 06008KT 29/05 A3003 RMK A01 T02930053  RH  022%=      5-min Rain = 0
KCO1 142144Z 06008KT 29/05 A3002 RMK A01 T02930052  RH  022%=      5-min Rain = 0
KCO1 142145Z 05008KT 29/05 A3002 RMK A01 T02940052  RH  022%=      5-min Rain = 0
KCO1 142146Z 05006KT 30/05 A3002 RMK A01 T02960053  RH  022%=      5-min Rain = 0
KCO1 142147Z 06009KT 30/05 A3002 RMK A01 T02970054  RH  021%=      5-min Rain = 0
KCO1 142148Z 06008KT 30/05 A3002 RMK A01 T02980053  RH  021%=      5-min Rain = 0
KCO1 142149Z 05010KT 30/05 A3002 RMK A01 T02970053  RH  021%=      5-min Rain = 0
KCO1 142150Z 06009KT 29/05 A3002 RMK A01 T02940053  RH  022%=      5-min Rain = 0
KCO1 142151Z 07009KT 29/05 A3002 RMK A01 T02910054  RH  022%=      5-min Rain = 0
KCO1 142152Z 07011KT 29/05 A3002 RMK A01 T02890054  RH  022%=      5-min Rain = 0
KCO1 142153Z 07008KT 29/05 A3002 RMK A01 T02880054  RH  023%=      5-min Rain = 0
KCO1 142154Z 08009KT 29/05 A3001 RMK A01 T02870054  RH  023%=      5-min Rain = 0
KCO1 142155Z 09008KT 29/05 A3001 RMK A01 T02880052  RH  022%=      5-min Rain = 0
KCO1 142156Z 08010KT 29/05 A3001 RMK A01 T02880054  RH  023%=      5-min Rain = 0
KCO1 142157Z 07011KT 29/06 A3001 RMK A01 T02880056  RH  023%=      5-min Rain = 0
KCO1 142158Z 06009KT 29/06 A3001 RMK A01 T02880057  RH  023%=      5-min Rain = 0
KCO1 142159Z 08008KT 29/06 A3001 RMK A01 T02880057  RH  023%=      5-min Rain = 0
KCO1 142200Z 08009KT 29/06 A3001 RMK A01 T02880056  RH  023%=      5-min Rain = 0
KCO1 142201Z 08008KT 29/06 A3001 RMK A01 T02880055  RH  023%=      5-min Rain = 0
KCO1 142202Z 07007KT 29/05 A3001 RMK A01 T02870054  RH  023%=      5-min Rain = 0
KCO1 142203Z 07008KT 29/05 A3001 RMK A01 T02860053  RH  023%=      5-min Rain = 0
KCO1 142204Z 09007KT 29/05 A3001 RMK A01 T02860052  RH  023%=      5-min Rain = 0
KCO1 142205Z 08006KT 29/05 A3001 RMK A01 T02860053  RH  023%=      5-min Rain = 0
KCO1 142206Z 08006KT 29/05 A3001 RMK A01 T02870053  RH  023%=      5-min Rain = 0
KCO1 142207Z 07006KT 29/05 A3001 RMK A01 T02880054  RH  023%=      5-min Rain = 0
KCO1 142208Z 07008KT 29/05 A3001 RMK A01 T02880054  RH  023%=      5-min Rain = 0
KCO1 142209Z 07008KT 29/05 A3001 RMK A01 T02880054  RH  023%=      5-min Rain = 0
KCO1 142210Z 08008KT 29/06 A3001 RMK A01 T02900056  RH  023%=      5-min Rain = 0
KCO1 142211Z 08007KT 29/06 A3001 RMK A01 T02940057  RH  022%=      5-min Rain = 0
KCO1 142212Z 08007KT 30/06 A3001 RMK A01 T02960056  RH  022%=      5-min Rain = 0
KCO1 142213Z 07008KT 30/06 A3001 RMK A01 T02970056  RH  022%=      5-min Rain = 0
KCO1 142214Z 08008KT 30/06 A3001 RMK A01 T02960056  RH  022%=      5-min Rain = 0
KCO1 142215Z 08008KT 30/06 A3001 RMK A01 T02970056  RH  022%=      5-min Rain = 0
KCO1 142216Z 07008KT 30/06 A3001 RMK A01 T02970056  RH  022%=      5-min Rain = 0
KCO1 142217Z 07008KT 30/06 A3001 RMK A01 T02980057  RH  022%=      5-min Rain = 0
KCO1 142218Z 07007KT 30/06 A30 RMK A01 T02970057  RH  022%=      5-min Rain = 0
KCO1 142219Z 07009KT 30/06 A30 RMK A01 T02990057  RH  022%=      5-min Rain = 0
KCO1 142220Z 07007KT 30/06 A30 RMK A01 T02990056  RH  022%=      5-min Rain = 0
KCO1 142221Z 08007KT 30/06 A30 RMK A01 T03000056  RH  021%=      5-min Rain = 0
KCO1 142222Z 08008KT 30/06 A30 RMK A01 T03010058  RH  022%=      5-min Rain = 0
KCO1 142223Z 09009KT 30/06 A30 RMK A01 T03020056  RH  021%=      5-min Rain = 0
KCO1 142224Z 08007KT 30/06 A30 RMK A01 T03010055  RH  021%=      5-min Rain = 0
KCO1 142225Z 07009KT 30/06 A30 RMK A01 T03000056  RH  021%=      5-min Rain = 0
KCO1 142226Z 09008KT 30/06 A30 RMK A01 T03000055  RH  021%=      5-min Rain = 0
KCO1 142227Z 07007KT 30/05 A30 RMK A01 T03010054  RH  021%=      5-min Rain = 0
KCO1 142228Z 07008KT 30/05 A30 RMK A01 T03010054  RH  021%=      5-min Rain = 0
KCO1 142229Z 07007KT 30/05 A30 RMK A01 T03000053  RH  021%=      5-min Rain = 0
KCO1 142230Z 07007KT 30/05 A30 RMK A01 T03000054  RH  021%=      5-min Rain = 0
KCO1 142231Z 07007KT 30/05 A30 RMK A01 T03000054  RH  021%=      5-min Rain = 0
KCO1 142232Z 07006KT 30/05 A30 RMK A01 T03000054  RH  021%=      5-min Rain = 0
KCO1 142233Z 07005KT 30/05 A2999 RMK A01 T03000054  RH  021%=      5-min Rain = 0
KCO1 142234Z 08006KT 30/06 A2999 RMK A01 T03010055  RH  021%=      5-min Rain = 0
KCO1 142235Z 09006KT 30/05 A2999 RMK A01 T03030053  RH  021%=      5-min Rain = 0
KCO1 142236Z 08006KT 30/05 A2999 RMK A01 T03030053  RH  021%=      5-min Rain = 0
KCO1 142237Z 08006KT 30/05 A2999 RMK A01 T03020053  RH  021%=      5-min Rain = 0
KCO1 142238Z 09005KT 30/05 A2999 RMK A01 T03030053  RH  021%=      5-min Rain = 0
KCO1 142239Z 08005KT 30/05 A2999 RMK A01 T03030053  RH  021%=      5-min Rain = 0
KCO1 142240Z 06005KT 31/05 A2999 RMK A01 T03050054  RH  020%=      5-min Rain = 0
KCO1 142241Z 07004KT 31/05 A2999 RMK A01 T03050053  RH  020%=      5-min Rain = 0
KCO1 142242Z 06004KT 31/05 A2999 RMK A01 T03050053  RH  020%=      5-min Rain = 0
KCO1 142243Z 06005KT 31/05 A2999 RMK A01 T03050053  RH  020%=      5-min Rain = 0
KCO1 142244Z 05004KT 31/05 A2998 RMK A01 T03060054  RH  020%=      5-min Rain = 0
KCO1 142245Z 04004KT 31/05 A2998 RMK A01 T03060054  RH  020%=      5-min Rain = 0
KCO1 142246Z 05005KT 31/05 A2998 RMK A01 T03060054  RH  020%=      5-min Rain = 0
KCO1 142247Z 06006KT 31/06 A2998 RMK A01 T03070055  RH  021%=      5-min Rain = 0
KCO1 142248Z 05003KT 31/06 A2998 RMK A01 T03070055  RH  020%=      5-min Rain = 0
KCO1 142249Z 06004KT 31/06 A2998 RMK A01 T03070055  RH  020%=      5-min Rain = 0
KCO1 142250Z 05003KT 31/05 A2998 RMK A01 T03070053  RH  020%=      5-min Rain = 0
KCO1 142251Z 04003KT 31/05 A2998 RMK A01 T03050052  RH  020%=      5-min Rain = 0
KCO1 142252Z 04003KT 31/05 A2998 RMK A01 T03050053  RH  020%=      5-min Rain = 0
KCO1 142253Z 06002KT 30/05 A2998 RMK A01 T03040053  RH  020%=      5-min Rain = 0
KCO1 142254Z 06001KT 30/05 A2998 RMK A01 T03040053  RH  021%=      5-min Rain = 0
KCO1 142255Z 05002KT 31/05 A2998 RMK A01 T03050054  RH  021%=      5-min Rain = 0
KCO1 142256Z 04002KT 31/06 A2998 RMK A01 T03050055  RH  021%=      5-min Rain = 0
KCO1 142257Z 06002KT 31/06 A2998 RMK A01 T03060055  RH  021%=      5-min Rain = 0
KCO1 142258Z 07002KT 31/05 A2998 RMK A01 T03070054  RH  020%=      5-min Rain = 0
KCO1 142259Z 05003KT 31/05 A2998 RMK A01 T03070054  RH  020%=      5-min Rain = 0
KCO1 142300Z 04003KT 31/06 A2998 RMK A01 T03070055  RH  020%=      5-min Rain = 0
KCO1 142301Z 01002KT 31/06 A2998 RMK A01 T03070055  RH  020%=      5-min Rain = 0
KCO1 142302Z 35004KT 31/06 A2998 RMK A01 T03070055  RH  020%=      5-min Rain = 0
KCO1 142303Z 36003KT 31/06 A2998 RMK A01 T03070055  RH  021%=      5-min Rain = 0
KCO1 142304Z 01006KT 31/06 A2998 RMK A01 T03060057  RH  021%=      5-min Rain = 0
KCO1 142305Z 00007KT 31/06 A2998 RMK A01 T03060058  RH  021%=      5-min Rain = 0
KCO1 142306Z 35007KT 31/06 A2998 RMK A01 T03050057  RH  021%=      5-min Rain = 0
KCO1 142307Z 34008KT 31/06 A2998 RMK A01 T03050057  RH  021%=      5-min Rain = 0
KCO1 142308Z 33007KT 30/06 A2998 RMK A01 T03040056  RH  021%=      5-min Rain = 0
KCO1 142309Z 34006KT 30/06 A2998 RMK A01 T03040056  RH  021%=      5-min Rain = 0
KCO1 142310Z 34006KT 30/06 A2998 RMK A01 T03040055  RH  021%=      5-min Rain = 0
KCO1 142311Z 36006KT 30/06 A2998 RMK A01 T03040055  RH  021%=      5-min Rain = 0
KCO1 142312Z 01005KT 30/06 A2998 RMK A01 T03030055  RH  021%=      5-min Rain = 0
KCO1 142313Z 01004KT 30/05 A2998 RMK A01 T03040054  RH  021%=      5-min Rain = 0
KCO1 142314Z 35003KT 30/05 A2998 RMK A01 T03040053  RH  020%=      5-min Rain = 0
KCO1 142315Z 32003KT 31/05 A2998 RMK A01 T03050054  RH  021%=      5-min Rain = 0
KCO1 142316Z 35001KT 31/05 A2998 RMK A01 T03060054  RH  020%=      5-min Rain = 0
KCO1 142317Z 34001KT 31/05 A2998 RMK A01 T03070052  RH  020%=      5-min Rain = 0
KCO1 142318Z 29001KT 31/05 A2998 RMK A01 T03070051  RH  020%=      5-min Rain = 0
KCO1 142319Z 35002KT 31/05 A2998 RMK A01 T03080051  RH  020%=      5-min Rain = 0
KCO1 142320Z 35003KT 31/05 A2998 RMK A01 T03080050  RH  020%=      5-min Rain = 0
KCO1 142321Z 29002KT 31/05 A2998 RMK A01 T03080051  RH  020%=      5-min Rain = 0
KCO1 142322Z 27001KT 31/05 A2998 RMK A01 T03080052  RH  020%=      5-min Rain = 0
KCO1 142323Z 29003KT 31/05 A2998 RMK A01 T03070052  RH  020%=      5-min Rain = 0
KCO1 142324Z 33003KT 31/05 A2998 RMK A01 T03070052  RH  020%=      5-min Rain = 0
KCO1 142325Z 34002KT 31/05 A2998 RMK A01 T03060051  RH  020%=      5-min Rain = 0
KCO1 142326Z 23002KT 31/05 A2998 RMK A01 T03060051  RH  020%=      5-min Rain = 0
KCO1 142327Z 19004KT 31/05 A2998 RMK A01 T03060052  RH  020%=      5-min Rain = 0
KCO1 142328Z 24006KT 31/05 A2998 RMK A01 T03050052  RH  020%=      5-min Rain = 0
KCO1 142329Z 28007KT 31/05 A2998 RMK A01 T03050052  RH  020%=      5-min Rain = 0
KCO1 142330Z 29007KT 30/05 A2998 RMK A01 T03040052  RH  020%=      5-min Rain = 0
KCO1 142331Z 29007KT 30/05 A2999 RMK A01 T03030052  RH  021%=      5-min Rain = 0
KCO1 142332Z 29006KT 30/05 A2999 RMK A01 T03020053  RH  021%=      5-min Rain = 0
KCO1 142333Z 30005KT 30/05 A2999 RMK A01 T03020052  RH  021%=      5-min Rain = 0
KCO1 142334Z 28003KT 30/05 A2999 RMK A01 T03020052  RH  021%=      5-min Rain = 0
KCO1 142335Z 29004KT 30/05 A2998 RMK A01 T03020053  RH  021%=      5-min Rain = 0
KCO1 142336Z 29005KT 30/05 A2998 RMK A01 T03030053  RH  021%=      5-min Rain = 0
KCO1 142337Z 29007KT 30/05 A2998 RMK A01 T03030053  RH  021%=      5-min Rain = 0
KCO1 142338Z 30007KT 30/05 A2998 RMK A01 T03020053  RH  021%=      5-min Rain = 0
KCO1 142339Z 32007KT 30/05 A2998 RMK A01 T03020053  RH  021%=      5-min Rain = 0
KCO1 142340Z 34006KT 30/05 A2998 RMK A01 T03010053  RH  021%=      5-min Rain = 0
KCO1 142341Z 30005KT 30/05 A2999 RMK A01 T03010053  RH  021%=      5-min Rain = 0
KCO1 142342Z 30006KT 30/05 A2999 RMK A01 T03000053  RH  021%=      5-min Rain = 0
KCO1 142343Z 30007KT 30/05 A2999 RMK A01 T03010053  RH  021%=      5-min Rain = 0
KCO1 142344Z 28005KT 30/05 A2999 RMK A01 T03010053  RH  021%=      5-min Rain = 0
KCO1 142345Z 22004KT 30/05 A2999 RMK A01 T03010051  RH  021%=      5-min Rain = 0
KCO1 142346Z 25003KT 30/05 A2998 RMK A01 T03020051  RH  020%=      5-min Rain = 0
KCO1 142347Z 32003KT 30/05 A2998 RMK A01 T03030052  RH  020%=      5-min Rain = 0
KCO1 142348Z 33003KT 30/05 A2998 RMK A01 T03030053  RH  021%=      5-min Rain = 0
KCO1 142349Z 32003KT 30/05 A2998 RMK A01 T03010052  RH  021%=      5-min Rain = 0
KCO1 142350Z 29001KT 30/05 A2998 RMK A01 T03010051  RH  021%=      5-min Rain = 0
KCO1 142351Z 05002KT 30/05 A2998 RMK A01 T03010050  RH  020%=      5-min Rain = 0
KCO1 142352Z 33001KT 30/05 A2998 RMK A01 T03020050  RH  020%=      5-min Rain = 0
KCO1 142353Z 26003KT 30/05 A2998 RMK A01 T03020051  RH  020%=      5-min Rain = 0
KCO1 142354Z 28002KT 30/05 A2999 RMK A01 T03020051  RH  020%=      5-min Rain = 0
KCO1 142355Z 27002KT 30/05 A2999 RMK A01 T03020052  RH  021%=      5-min Rain = 0
KCO1 142356Z 28001KT 30/05 A2999 RMK A01 T03020052  RH  021%=      5-min Rain = 0
KCO1 142357Z 32004KT 30/05 A2999 RMK A01 T03020051  RH  021%=      5-min Rain = 0
KCO1 142358Z 31003KT 30/05 A2999 RMK A01 T03010051  RH  020%=      5-min Rain = 0
KCO1 142359Z 32003KT 30/05 A2999 RMK A01 T03010051  RH  021%=      5-min Rain = 0
KCO1 150000Z 31004KT 30/05 A2999 RMK A01 T03000051  RH  021%=      5-min Rain = 0
KCO1 150001Z 30005KT 30/05 A2999 RMK A01 T02980051  RH  021%=      5-min Rain = 0
KCO1 150002Z 31005KT 30/05 A2999 RMK A01 T02980050  RH  021%=      5-min Rain = 0
KCO1 150003Z 29002KT 30/05 A2999 RMK A01 T02980050  RH  021%=      5-min Rain = 0
KCO1 150004Z 31002KT 30/05 A2999 RMK A01 T02980050  RH  021%=      5-min Rain = 0
KCO1 150005Z 30004KT 30/05 A2999 RMK A01 T02990051  RH  021%=      5-min Rain = 0
KCO1 150006Z 32002KT 30/05 A2999 RMK A01 T02990051  RH  021%=      5-min Rain = 0
KCO1 150007Z 32004KT 30/05 A2999 RMK A01 T02980051  RH  021%=      5-min Rain = 0
KCO1 150008Z 31005KT 30/05 A2999 RMK A01 T02960051  RH  021%=      5-min Rain = 0
KCO1 150009Z 32002KT 29/05 A2999 RMK A01 T02940050  RH  021%=      5-min Rain = 0
KCO1 150010Z 31003KT 29/05 A2999 RMK A01 T02940050  RH  021%=      5-min Rain = 0
KCO1 150011Z 29003KT 29/05 A2999 RMK A01 T02930050  RH  021%=      5-min Rain = 0
KCO1 150012Z 29004KT 29/05 A2999 RMK A01 T02910050  RH  022%=      5-min Rain = 0
KCO1 150013Z 29005KT 29/05 A2999 RMK A01 T02890049  RH  022%=      5-min Rain = 0
KCO1 150014Z 29005KT 29/05 A2999 RMK A01 T02880049  RH  022%=      5-min Rain = 0
KCO1 150015Z 30004KT 29/05 A2999 RMK A01 T02870050  RH  022%=      5-min Rain = 0
KCO1 150016Z 31003KT 29/05 A2999 RMK A01 T02850050  RH  022%=      5-min Rain = 0
KCO1 150017Z 31003KT 28/05 A2999 RMK A01 T02830049  RH  023%=      5-min Rain = 0
KCO1 150018Z 32004KT 28/05 A2999 RMK A01 T02800049  RH  023%=      5-min Rain = 0
KCO1 150019Z 33007KT 28/05 A2999 RMK A01 T02790049  RH  023%=      5-min Rain = 0
KCO1 150020Z 32005KT 28/05 A2999 RMK A01 T02790050  RH  023%=      5-min Rain = 0
KCO1 150021Z 32002KT 28/05 A2999 RMK A01 T02800051  RH  023%=      5-min Rain = 0
KCO1 150022Z 31001KT 28/05 A2999 RMK A01 T02830051  RH  023%=      5-min Rain = 0
KCO1 150023Z 33001KT 28/05 A2999 RMK A01 T02840050  RH  023%=      5-min Rain = 0
KCO1 150024Z 35005KT 29/05 A2999 RMK A01 T02850050  RH  022%=      5-min Rain = 0
KCO1 150025Z 01005KT 29/05 A2999 RMK A01 T02850051  RH  023%=      5-min Rain = 0
KCO1 150026Z 01004KT 28/06 A2999 RMK A01 T02840055  RH  023%=      5-min Rain = 0
KCO1 150027Z 00004KT 28/06 A2999 RMK A01 T02800055  RH  024%=      5-min Rain = 0
KCO1 150028Z 35004KT 28/06 A2999 RMK A01 T02770055  RH  024%=      5-min Rain = 0
KCO1 150029Z 36004KT 27/06 A2999 RMK A01 T02740056  RH  025%=      5-min Rain = 0
KCO1 150030Z 34003KT 27/06 A2999 RMK A01 T02730057  RH  025%=      5-min Rain = 0
KCO1 150031Z 36002KT 27/06 A2999 RMK A01 T02710056  RH  025%=      5-min Rain = 0
KCO1 150032Z 01003KT 27/06 A2999 RMK A01 T02700058  RH  026%=      5-min Rain = 0
KCO1 150033Z 02003KT 27/06 A2999 RMK A01 T02690058  RH  026%=      5-min Rain = 0
KCO1 150034Z 03003KT 27/06 A2999 RMK A01 T02670058  RH  026%=      5-min Rain = 0
KCO1 150035Z 02003KT 27/06 A2999 RMK A01 T02650058  RH  027%=      5-min Rain = 0
KCO1 150036Z 02003KT 26/06 A2999 RMK A01 T02630058  RH  027%=      5-min Rain = 0
KCO1 150037Z 01005KT 26/06 A2999 RMK A01 T02610058  RH  027%=      5-min Rain = 0
KCO1 150038Z 02004KT 26/06 A2998 RMK A01 T02580057  RH  028%=      5-min Rain = 0
KCO1 150039Z 02003KT 26/06 A2998 RMK A01 T02550056  RH  028%=      5-min Rain = 0
KCO1 150040Z 05003KT 25/06 A2998 RMK A01 T02530057  RH  028%=      5-min Rain = 0
KCO1 150041Z 06004KT 25/06 A2998 RMK A01 T02520058  RH  029%=      5-min Rain = 0
KCO1 150042Z 05003KT 25/06 A2998 RMK A01 T02520059  RH  029%=      5-min Rain = 0
KCO1 150043Z 34001KT 25/06 A2999 RMK A01 T02540059  RH  029%=      5-min Rain = 0
KCO1 150044Z 25000KT 25/06 A2999 RMK A01 T02540059  RH  029%=      5-min Rain = 0
KCO1 150045Z 33001KT 26/06 A2999 RMK A01 T02550059  RH  028%=      5-min Rain = 0
KCO1 150046Z 33001KT 26/06 A2998 RMK A01 T02580060  RH  028%=      5-min Rain = 0
KCO1 150047Z 03002KT 26/06 A2998 RMK A01 T02590060  RH  028%=      5-min Rain = 0
KCO1 150048Z 03004KT 26/06 A2998 RMK A01 T02600060  RH  028%=      5-min Rain = 0
KCO1 150049Z 03003KT 26/06 A2998 RMK A01 T02600060  RH  028%=      5-min Rain = 0
KCO1 150050Z 02002KT 26/06 A2998 RMK A01 T02590059  RH  028%=      5-min Rain = 0
KCO1 150051Z 03003KT 26/06 A2998 RMK A01 T02570058  RH  028%=      5-min Rain = 0
KCO1 150052Z 02004KT 26/06 A2998 RMK A01 T02560058  RH  028%=      5-min Rain = 0
KCO1 150053Z 02004KT 25/06 A2998 RMK A01 T02540058  RH  028%=      5-min Rain = 0
KCO1 150054Z 02004KT 25/06 A2998 RMK A01 T02530057  RH  029%=      5-min Rain = 0
KCO1 150055Z 03004KT 25/06 A2998 RMK A01 T02500056  RH  029%=      5-min Rain = 0
KCO1 150056Z 03004KT 25/06 A2998 RMK A01 T02480058  RH  029%=      5-min Rain = 0
KCO1 150057Z 03004KT 25/06 A2998 RMK A01 T02470059  RH  030%=      5-min Rain = 0
KCO1 150058Z 03004KT 25/06 A2998 RMK A01 T02460058  RH  030%=      5-min Rain = 0
KCO1 150059Z 03004KT 25/06 A2998 RMK A01 T02450058  RH  030%=      5-min Rain = 0
KCO1 150100Z 03004KT 24/06 A2998 RMK A01 T02440059  RH  030%=      5-min Rain = 0
KCO1 150101Z 03004KT 24/06 A2998 RMK A01 T02440059  RH  030%=      5-min Rain = 0
KCO1 150102Z 03004KT 24/06 A2998 RMK A01 T02440059  RH  030%=      5-min Rain = 0
KCO1 150103Z 03005KT 25/06 A2999 RMK A01 T02450060  RH  030%=      5-min Rain = 0
KCO1 150104Z 03005KT 24/06 A2999 RMK A01 T02440059  RH  030%=      5-min Rain = 0
KCO1 150105Z 03006KT 24/06 A2999 RMK A01 T02430059  RH  030%=      5-min Rain = 0
KCO1 150106Z 03005KT 24/06 A2999 RMK A01 T02410057  RH  031%=      5-min Rain = 0
KCO1 150107Z 03005KT 24/06 A2999 RMK A01 T02380056  RH  031%=      5-min Rain = 0
KCO1 150108Z 03005KT 24/06 A2999 RMK A01 T02360056  RH  031%=      5-min Rain = 0
KCO1 150109Z 03004KT 23/06 A2999 RMK A01 T02340057  RH  032%=      5-min Rain = 0
KCO1 150110Z 03004KT 23/06 A2999 RMK A01 T02340058  RH  032%=      5-min Rain = 0
KCO1 150111Z 03004KT 23/06 A2999 RMK A01 T02340058  RH  032%=      5-min Rain = 0
KCO1 150112Z 03004KT 24/06 A2999 RMK A01 T02350059  RH  032%=      5-min Rain = 0
KCO1 150113Z 03004KT 24/06 A2999 RMK A01 T02360059  RH  032%=      5-min Rain = 0
KCO1 150114Z 05004KT 24/06 A2999 RMK A01 T02360059  RH  032%=      5-min Rain = 0
KCO1 150115Z 06004KT 24/06 A2999 RMK A01 T02350058  RH  032%=      5-min Rain = 0
KCO1 150116Z 10008KT 23/06 A2999 RMK A01 T02330057  RH  032%=      5-min Rain = 0
KCO1 150117Z 12010KT 23/05 A2999 RMK A01 T02290053  RH  032%=      5-min Rain = 0
KCO1 150118Z 12008KT 23/05 A2999 RMK A01 T02260053  RH  033%=      5-min Rain = 0
KCO1 150119Z 10007KT 23/05 A2999 RMK A01 T02260053  RH  033%=      5-min Rain = 0
KCO1 150120Z 10006KT 23/06 A2999 RMK A01 T02260055  RH  033%=      5-min Rain = 0
KCO1 150121Z 09005KT 23/06 A2999 RMK A01 T02290056  RH  033%=      5-min Rain = 0
KCO1 150122Z 09005KT 23/06 A2999 RMK A01 T02300056  RH  032%=      5-min Rain = 0
KCO1 150123Z 10005KT 23/06 A2999 RMK A01 T02300056  RH  032%=      5-min Rain = 0
KCO1 150124Z 10005KT 23/06 A2999 RMK A01 T02310056  RH  032%=      5-min Rain = 0
KCO1 150125Z 09004KT 23/06 A2999 RMK A01 T02310055  RH  032%=      5-min Rain = 0
KCO1 150126Z 09004KT 23/06 A2999 RMK A01 T02300055  RH  032%=      5-min Rain = 0
KCO1 150127Z 10004KT 23/05 A2999 RMK A01 T02300054  RH  032%=      5-min Rain = 0
KCO1 150128Z 11005KT 23/05 A2999 RMK A01 T02290054  RH  032%=      5-min Rain = 0
KCO1 150129Z 11004KT 23/05 A2999 RMK A01 T02270053  RH  032%=      5-min Rain = 0
KCO1 150130Z 11004KT 23/05 A2999 RMK A01 T02250052  RH  032%=      5-min Rain = 0
KCO1 150131Z 11004KT 23/05 A2999 RMK A01 T02250052  RH  033%=      5-min Rain = 0
KCO1 150132Z 11004KT 22/05 A2999 RMK A01 T02240052  RH  033%=      5-min Rain = 0
KCO1 150133Z 11004KT 23/05 A2999 RMK A01 T02250052  RH  033%=      5-min Rain = 0
KCO1 150134Z 11003KT 23/05 A2999 RMK A01 T02250052  RH  033%=      5-min Rain = 0
KCO1 150135Z 11003KT 23/05 A2999 RMK A01 T02260053  RH  033%=      5-min Rain = 0
KCO1 150136Z 10003KT 23/05 A2999 RMK A01 T02280054  RH  032%=      5-min Rain = 0
KCO1 150137Z 11004KT 23/05 A2999 RMK A01 T02300053  RH  032%=      5-min Rain = 0
KCO1 150138Z 11004KT 23/05 A2999 RMK A01 T02300053  RH  032%=      5-min Rain = 0
KCO1 150139Z 12004KT 23/05 A30 RMK A01 T02290052  RH  032%=      5-min Rain = 0
KCO1 150140Z 13004KT 23/05 A30 RMK A01 T02280051  RH  032%=      5-min Rain = 0
KCO1 150141Z 14004KT 23/05 A30 RMK A01 T02270051  RH  032%=      5-min Rain = 0
KCO1 150142Z 15004KT 23/05 A30 RMK A01 T02250050  RH  032%=      5-min Rain = 0
KCO1 150143Z 15004KT 23/05 A30 RMK A01 T02250050  RH  032%=      5-min Rain = 0
KCO1 150144Z 16004KT 22/05 A30 RMK A01 T02240050  RH  032%=      5-min Rain = 0
KCO1 150145Z 16004KT 22/05 A30 RMK A01 T02240050  RH  032%=      5-min Rain = 0
KCO1 150146Z 16004KT 22/05 A30 RMK A01 T02230049  RH  032%=      5-min Rain = 0
KCO1 150147Z 15004KT 22/05 A30 RMK A01 T02210048  RH  032%=      5-min Rain = 0
KCO1 150148Z 15005KT 22/05 A30 RMK A01 T02200048  RH  033%=      5-min Rain = 0
KCO1 150149Z 15005KT 22/05 A30 RMK A01 T02180048  RH  033%=      5-min Rain = 0
KCO1 150150Z 15005KT 22/05 A30 RMK A01 T02180047  RH  033%=      5-min Rain = 0
KCO1 150151Z 16007KT 22/05 A30 RMK A01 T02170047  RH  033%=      5-min Rain = 0
KCO1 150152Z 16008KT 22/05 A30 RMK A01 T02150047  RH  033%=      5-min Rain = 0
KCO1 150153Z 17009KT 22/05 A30 RMK A01 T02150048  RH  034%=      5-min Rain = 0
KCO1 150154Z 16010KT 22/05 A30 RMK A01 T02180052  RH  034%=      5-min Rain = 0
KCO1 150155Z 16012KT 23/06 A30 RMK A01 T02260056  RH  033%=      5-min Rain = 0
KCO1 150156Z 16012KT 23/06 A30 RMK A01 T02330058  RH  032%=      5-min Rain = 0
KCO1 150157Z 16010KT 24/06 A30 RMK A01 T02400059  RH  031%=      5-min Rain = 0
KCO1 150158Z 16012KT 24/06 A30 RMK A01 T02430059  RH  030%=      5-min Rain = 0
KCO1 150159Z 16012KT 25/06 A30 RMK A01 T02450058  RH  030%=      5-min Rain = 0
KCO1 150200Z 17011KT 25/06 A30 RMK A01 T02460059  RH  030%=      5-min Rain = 0
KCO1 150201Z 17011KT 25/06 A30 RMK A01 T02480059  RH  030%=      5-min Rain = 0
KCO1 150202Z 16011KT 25/06 A30 RMK A01 T02490059  RH  030%=      5-min Rain = 0
KCO1 150203Z 16011KT 25/06 A30 RMK A01 T02490059  RH  029%=      5-min Rain = 0
KCO1 150204Z 16011KT 25/06 A30 RMK A01 T02490059  RH  029%=      5-min Rain = 0
KCO1 150205Z 16011KT 25/06 A30 RMK A01 T02480058  RH  030%=      5-min Rain = 0
KCO1 150206Z 16010KT 25/06 A30 RMK A01 T02470059  RH  030%=      5-min Rain = 0
KCO1 150207Z 15010KT 25/06 A30 RMK A01 T02460059  RH  030%=      5-min Rain = 0
KCO1 150208Z 15009KT 25/06 A30 RMK A01 T02450059  RH  030%=      5-min Rain = 0
KCO1 150209Z 15010KT 24/06 A30 RMK A01 T02430058  RH  030%=      5-min Rain = 0
KCO1 150210Z 16010KT 24/06 A30 RMK A01 T02410057  RH  030%=      5-min Rain = 0
KCO1 150211Z 16009KT 24/06 A30 RMK A01 T02390056  RH  031%=      5-min Rain = 0
KCO1 150212Z 16008KT 24/06 A30 RMK A01 T02380056  RH  031%=      5-min Rain = 0
KCO1 150213Z 15008KT 24/06 A30 RMK A01 T02360056  RH  031%=      5-min Rain = 0
KCO1 150214Z 15008KT 24/06 A30 RMK A01 T02350055  RH  031%=      5-min Rain = 0
KCO1 150215Z 16008KT 23/06 A30 RMK A01 T02340056  RH  032%=      5-min Rain = 0
KCO1 150216Z 16009KT 23/06 A30 RMK A01 T02330056  RH  032%=      5-min Rain = 0
KCO1 150217Z 16009KT 23/06 A30 RMK A01 T02330057  RH  032%=      5-min Rain = 0
KCO1 150218Z 16010KT 23/06 A30 RMK A01 T02330058  RH  032%=      5-min Rain = 0
KCO1 150219Z 16009KT 24/06 A30 RMK A01 T02350059  RH  032%=      5-min Rain = 0
KCO1 150220Z 17008KT 24/06 A30 RMK A01 T02350059  RH  032%=      5-min Rain = 0
KCO1 150221Z 17008KT 24/06 A30 RMK A01 T02350058  RH  032%=      5-min Rain = 0
KCO1 150222Z 17009KT 24/06 A30 RMK A01 T02350058  RH  032%=      5-min Rain = 0
KCO1 150223Z 17009KT 23/06 A30 RMK A01 T02340058  RH  032%=      5-min Rain = 0
KCO1 150224Z 17008KT 23/06 A30 RMK A01 T02330058  RH  032%=      5-min Rain = 0
KCO1 150225Z 17008KT 23/06 A30 RMK A01 T02330058  RH  032%=      5-min Rain = 0
KCO1 150226Z 16008KT 23/06 A3001 RMK A01 T02320058  RH  032%=      5-min Rain = 0
KCO1 150227Z 16007KT 23/06 A3001 RMK A01 T02310058  RH  033%=      5-min Rain = 0
KCO1 150228Z 16007KT 23/06 A30 RMK A01 T02290056  RH  033%=      5-min Rain = 0
KCO1 150229Z 16007KT 23/06 A30 RMK A01 T02270056  RH  033%=      5-min Rain = 0
KCO1 150230Z 15006KT 23/06 A30 RMK A01 T02270057  RH  033%=      5-min Rain = 0
KCO1 150231Z 14006KT 23/06 A30 RMK A01 T02250056  RH  033%=      5-min Rain = 0
KCO1 150232Z 14006KT 22/06 A30 RMK A01 T02240056  RH  034%=      5-min Rain = 0
KCO1 150233Z 15006KT 22/06 A30 RMK A01 T02220056  RH  034%=      5-min Rain = 0
KCO1 150234Z 14006KT 22/06 A30 RMK A01 T02210056  RH  034%=      5-min Rain = 0
KCO1 150235Z 14006KT 22/06 A30 RMK A01 T02200056  RH  034%=      5-min Rain = 0
KCO1 150236Z 14006KT 22/06 A30 RMK A01 T02190056  RH  034%=      5-min Rain = 0
KCO1 150237Z 14005KT 22/06 A30 RMK A01 T02180055  RH  035%=      5-min Rain = 0
KCO1 150238Z 14006KT 22/06 A3001 RMK A01 T02170055  RH  035%=      5-min Rain = 0
KCO1 150239Z 14005KT 22/05 A3001 RMK A01 T02150054  RH  035%=      5-min Rain = 0
KCO1 150240Z 14005KT 21/05 A3001 RMK A01 T02140054  RH  035%=      5-min Rain = 0
KCO1 150241Z 14005KT 21/05 A3001 RMK A01 T02130054  RH  035%=      5-min Rain = 0
KCO1 150242Z 15005KT 21/05 A3001 RMK A01 T02120054  RH  036%=      5-min Rain = 0
KCO1 150243Z 15005KT 21/05 A3001 RMK A01 T02110054  RH  036%=      5-min Rain = 0
KCO1 150244Z 15005KT 21/05 A3001 RMK A01 T02110054  RH  036%=      5-min Rain = 0
KCO1 150245Z 16005KT 21/06 A3001 RMK A01 T02100055  RH  036%=      5-min Rain = 0
KCO1 150246Z 16005KT 21/06 A3001 RMK A01 T02100055  RH  036%=      5-min Rain = 0
KCO1 150247Z 16005KT 21/06 A3001 RMK A01 T02100055  RH  036%=      5-min Rain = 0
KCO1 150248Z 16005KT 21/06 A3001 RMK A01 T02100056  RH  037%=      5-min Rain = 0
KCO1 150249Z 15005KT 21/06 A3001 RMK A01 T02090055  RH  037%=      5-min Rain = 0
KCO1 150250Z 16004KT 21/06 A3001 RMK A01 T02090055  RH  037%=      5-min Rain = 0
KCO1 150251Z 15005KT 21/06 A3001 RMK A01 T02080055  RH  037%=      5-min Rain = 0
KCO1 150252Z 15005KT 21/06 A3001 RMK A01 T02070056  RH  037%=      5-min Rain = 0
KCO1 150253Z 16005KT 21/06 A3001 RMK A01 T02070056  RH  037%=      5-min Rain = 0
KCO1 150254Z 16005KT 21/06 A3001 RMK A01 T02060056  RH  037%=      5-min Rain = 0
KCO1 150255Z 16005KT 21/06 A3001 RMK A01 T02060057  RH  038%=      5-min Rain = 0
KCO1 150256Z 16005KT 21/06 A3001 RMK A01 T02060057  RH  038%=      5-min Rain = 0
KCO1 150257Z 16006KT 21/06 A3001 RMK A01 T02060057  RH  038%=      5-min Rain = 0
KCO1 150258Z 16007KT 21/06 A3001 RMK A01 T02060058  RH  038%=      5-min Rain = 0
KCO1 150259Z 16007KT 21/06 A3001 RMK A01 T02060058  RH  038%=      5-min Rain = 0
KCO1 150300Z 16007KT 21/06 A3001 RMK A01 T02070059  RH  038%=      5-min Rain = 0
KCO1 150301Z 16007KT 21/06 A3001 RMK A01 T02080059  RH  038%=      5-min Rain = 0
KCO1 150302Z 16008KT 21/06 A3001 RMK A01 T02090060  RH  038%=      5-min Rain = 0
KCO1 150303Z 16008KT 21/06 A3001 RMK A01 T02090060  RH  038%=      5-min Rain = 0
KCO1 150304Z 16009KT 21/06 A3001 RMK A01 T02110061  RH  038%=      5-min Rain = 0
KCO1 150305Z 16009KT 21/06 A3001 RMK A01 T02120061  RH  037%=      5-min Rain = 0
KCO1 150306Z 16008KT 21/06 A3001 RMK A01 T02120061  RH  037%=      5-min Rain = 0
KCO1 150307Z 16009KT 21/06 A3001 RMK A01 T02120061  RH  037%=      5-min Rain = 0
KCO1 150308Z 16009KT 21/06 A3001 RMK A01 T02120061  RH  037%=      5-min Rain = 0
KCO1 150309Z 16009KT 21/06 A3001 RMK A01 T02120062  RH  037%=      5-min Rain = 0
KCO1 150310Z 16010KT 21/06 A3001 RMK A01 T02120061  RH  037%=      5-min Rain = 0
KCO1 150311Z 16009KT 21/06 A3001 RMK A01 T02120062  RH  037%=      5-min Rain = 0
KCO1 150312Z 16010KT 21/06 A3001 RMK A01 T02120062  RH  038%=      5-min Rain = 0
KCO1 150313Z 16009KT 21/06 A3001 RMK A01 T02120062  RH  038%=      5-min Rain = 0
KCO1 150314Z 16010KT 21/06 A3001 RMK A01 T02120062  RH  038%=      5-min Rain = 0
KCO1 150315Z 16009KT 21/06 A3002 RMK A01 T02120063  RH  038%=      5-min Rain = 0
KCO1 150316Z 16009KT 21/06 A3002 RMK A01 T02120062  RH  038%=      5-min Rain = 0
KCO1 150317Z 16009KT 21/06 A3002 RMK A01 T02120063  RH  038%=      5-min Rain = 0
KCO1 150318Z 16010KT 21/06 A3002 RMK A01 T02120063  RH  038%=      5-min Rain = 0
KCO1 150319Z 16011KT 21/06 A3002 RMK A01 T02120063  RH  038%=      5-min Rain = 0
KCO1 150320Z 16011KT 21/06 A3002 RMK A01 T02120063  RH  038%=      5-min Rain = 0
KCO1 150321Z 16010KT 21/06 A3002 RMK A01 T02110063  RH  038%=      5-min Rain = 0
KCO1 150322Z 16010KT 21/06 A3002 RMK A01 T02110063  RH  038%=      5-min Rain = 0
KCO1 150323Z 16010KT 21/06 A3002 RMK A01 T02110063  RH  038%=      5-min Rain = 0
KCO1 150324Z 16010KT 21/06 A3002 RMK A01 T02100063  RH  038%=      5-min Rain = 0
KCO1 150325Z 16010KT 21/06 A3002 RMK A01 T02110063  RH  038%=      5-min Rain = 0
KCO1 150326Z 16010KT 21/06 A3002 RMK A01 T02100063  RH  038%=      5-min Rain = 0
KCO1 150327Z 15010KT 21/06 A3002 RMK A01 T02100063  RH  038%=      5-min Rain = 0
KCO1 150328Z 15009KT 21/06 A3002 RMK A01 T02100063  RH  039%=      5-min Rain = 0
KCO1 150329Z 16010KT 21/06 A3002 RMK A01 T02090063  RH  039%=      5-min Rain = 0
KCO1 150330Z 16010KT 21/06 A3002 RMK A01 T02090063  RH  039%=      5-min Rain = 0
KCO1 150331Z 16009KT 21/06 A3002 RMK A01 T02090064  RH  039%=      5-min Rain = 0
KCO1 150332Z 16009KT 21/06 A3002 RMK A01 T02080063  RH  039%=      5-min Rain = 0
KCO1 150333Z 16009KT 21/06 A3002 RMK A01 T02080063  RH  039%=      5-min Rain = 0
KCO1 150334Z 16008KT 21/06 A3002 RMK A01 T02070063  RH  039%=      5-min Rain = 0
KCO1 150335Z 16009KT 21/06 A3002 RMK A01 T02070063  RH  039%=      5-min Rain = 0
KCO1 150336Z 16010KT 21/06 A3002 RMK A01 T02060063  RH  039%=      5-min Rain = 0
KCO1 150337Z 16008KT 21/06 A3002 RMK A01 T02060063  RH  040%=      5-min Rain = 0
KCO1 150338Z 15008KT 21/06 A3002 RMK A01 T02060064  RH  040%=      5-min Rain = 0
KCO1 150339Z 15009KT 21/06 A3002 RMK A01 T02050063  RH  040%=      5-min Rain = 0
KCO1 150340Z 15009KT 20/06 A3002 RMK A01 T02040064  RH  040%=      5-min Rain = 0
KCO1 150341Z 15008KT 20/06 A3002 RMK A01 T02040064  RH  040%=      5-min Rain = 0
KCO1 150342Z 15008KT 20/06 A3002 RMK A01 T02040063  RH  040%=      5-min Rain = 0
KCO1 150343Z 16008KT 20/06 A3002 RMK A01 T02030063  RH  040%=      5-min Rain = 0
KCO1 150344Z 16008KT 20/06 A3002 RMK A01 T02030064  RH  040%=      5-min Rain = 0
KCO1 150345Z 15009KT 20/06 A3002 RMK A01 T02020064  RH  040%=      5-min Rain = 0
KCO1 150346Z 16008KT 20/06 A3002 RMK A01 T02020063  RH  040%=      5-min Rain = 0
KCO1 150347Z 15009KT 20/06 A3002 RMK A01 T02010063  RH  041%=      5-min Rain = 0
KCO1 150348Z 15008KT 20/06 A3002 RMK A01 T02010064  RH  041%=      5-min Rain = 0
KCO1 150349Z 16008KT 20/06 A3002 RMK A01 T02010063  RH  041%=      5-min Rain = 0
KCO1 150350Z 16009KT 20/06 A3002 RMK A01 T02010064  RH  041%=      5-min Rain = 0
KCO1 150351Z 15008KT 20/06 A3002 RMK A01 T02000063  RH  041%=      5-min Rain = 0
KCO1 150352Z 15008KT 20/06 A3002 RMK A01 T02000063  RH  041%=      5-min Rain = 0
KCO1 150353Z 15007KT 20/06 A3002 RMK A01 T02000063  RH  041%=      5-min Rain = 0
KCO1 150354Z 15007KT 20/06 A3002 RMK A01 T02000063  RH  041%=      5-min Rain = 0
KCO1 150355Z 15009KT 20/06 A3002 RMK A01 T01990064  RH  041%=      5-min Rain = 0
KCO1 150356Z 15008KT 20/06 A3002 RMK A01 T01990063  RH  041%=      5-min Rain = 0
KCO1 150357Z 15008KT 20/06 A3002 RMK A01 T01990063  RH  041%=      5-min Rain = 0
KCO1 150358Z 15008KT 20/06 A3002 RMK A01 T01980063  RH  041%=      5-min Rain = 0
KCO1 150359Z 15009KT 20/06 A3002 RMK A01 T01980063  RH  041%=      5-min Rain = 0
KCO1 150400Z 15008KT 20/06 A3002 RMK A01 T01980063  RH  041%=      5-min Rain = 0
KCO1 150401Z 15008KT 20/06 A3002 RMK A01 T01980063  RH  041%=      5-min Rain = 0
KCO1 150402Z 15008KT 20/06 A3002 RMK A01 T01980063  RH  041%=      5-min Rain = 0
KCO1 150403Z 15007KT 20/06 A3002 RMK A01 T01970062  RH  041%=      5-min Rain = 0
KCO1 150404Z 15008KT 20/06 A3002 RMK A01 T01970062  RH  041%=      5-min Rain = 0
KCO1 150405Z 15008KT 20/06 A3002 RMK A01 T01970062  RH  041%=      5-min Rain = 0
KCO1 150406Z 15008KT 20/06 A3002 RMK A01 T01970062  RH  041%=      5-min Rain = 0
KCO1 150407Z 15008KT 20/06 A3002 RMK A01 T01970062  RH  041%=      5-min Rain = 0
KCO1 150408Z 16009KT 20/06 A3002 RMK A01 T01960061  RH  041%=      5-min Rain = 0
KCO1 150409Z 15009KT 20/06 A3003 RMK A01 T01960061  RH  041%=      5-min Rain = 0
KCO1 150410Z 16009KT 20/06 A3003 RMK A01 T01960061  RH  041%=      5-min Rain = 0
KCO1 150411Z 15009KT 20/06 A3003 RMK A01 T01960060  RH  041%=      5-min Rain = 0
KCO1 150412Z 16008KT 20/06 A3003 RMK A01 T01960060  RH  041%=      5-min Rain = 0
KCO1 150413Z 16008KT 20/06 A3003 RMK A01 T01960060  RH  041%=      5-min Rain = 0
KCO1 150414Z 16009KT 20/06 A3003 RMK A01 T01950059  RH  041%=      5-min Rain = 0
KCO1 150415Z 15009KT 20/06 A3003 RMK A01 T01950060  RH  041%=      5-min Rain = 0
KCO1 150416Z 15009KT 20/06 A3003 RMK A01 T01950059  RH  041%=      5-min Rain = 0
KCO1 150417Z 16008KT 20/06 A3003 RMK A01 T01950059  RH  041%=      5-min Rain = 0
KCO1 150418Z 15009KT 20/06 A3003 RMK A01 T01950059  RH  041%=      5-min Rain = 0
KCO1 150419Z 15009KT 19/06 A3003 RMK A01 T01940059  RH  041%=      5-min Rain = 0
KCO1 150420Z 16009KT 19/06 A3003 RMK A01 T01940058  RH  041%=      5-min Rain = 0
KCO1 150421Z 16010KT 19/06 A3003 RMK A01 T01940058  RH  041%=      5-min Rain = 0
KCO1 150422Z 15010KT 19/06 A3003 RMK A01 T01940058  RH  041%=      5-min Rain = 0
KCO1 150423Z 16009KT 19/06 A3003 RMK A01 T01940057  RH  041%=      5-min Rain = 0
KCO1 150424Z 16009KT 19/06 A3003 RMK A01 T01940058  RH  041%=      5-min Rain = 0
KCO1 150425Z 16010KT 19/06 A3003 RMK A01 T01940057  RH  041%=      5-min Rain = 0
KCO1 150426Z 16009KT 19/06 A3003 RMK A01 T01940057  RH  041%=      5-min Rain = 0
KCO1 150427Z 16010KT 19/06 A3003 RMK A01 T01940057  RH  041%=      5-min Rain = 0
KCO1 150428Z 16008KT 19/06 A3003 RMK A01 T01940057  RH  041%=      5-min Rain = 0
KCO1 150429Z 16009KT 19/06 A3003 RMK A01 T01940057  RH  041%=      5-min Rain = 0
KCO1 150430Z 16009KT 19/06 A3003 RMK A01 T01940056  RH  041%=      5-min Rain = 0
KCO1 150431Z 16008KT 19/06 A3003 RMK A01 T01940056  RH  040%=      5-min Rain = 0
KCO1 150432Z 16009KT 19/06 A3003 RMK A01 T01930056  RH  041%=      5-min Rain = 0
KCO1 150433Z 16009KT 19/06 A3003 RMK A01 T01930056  RH  041%=      5-min Rain = 0
KCO1 150434Z 16008KT 19/06 A3003 RMK A01 T01930056  RH  041%=      5-min Rain = 0
KCO1 150435Z 16010KT 19/06 A3003 RMK A01 T01930055  RH  041%=      5-min Rain = 0
KCO1 150436Z 16009KT 19/06 A3003 RMK A01 T01930055  RH  040%=      5-min Rain = 0
KCO1 150437Z 16009KT 19/06 A3003 RMK A01 T01920055  RH  040%=      5-min Rain = 0
KCO1 150438Z 16009KT 19/06 A3004 RMK A01 T01930055  RH  040%=      5-min Rain = 0
KCO1 150439Z 16008KT 19/05 A3004 RMK A01 T01920054  RH  040%=      5-min Rain = 0
KCO1 150440Z 15008KT 19/06 A3004 RMK A01 T01930055  RH  040%=      5-min Rain = 0
KCO1 150441Z 15008KT 19/06 A3004 RMK A01 T01920055  RH  040%=      5-min Rain = 0
KCO1 150442Z 15008KT 19/05 A3004 RMK A01 T01920054  RH  040%=      5-min Rain = 0
KCO1 150443Z 15009KT 19/05 A3004 RMK A01 T01910054  RH  040%=      5-min Rain = 0
KCO1 150444Z 15008KT 19/05 A3004 RMK A01 T01910054  RH  040%=      5-min Rain = 0
KCO1 150445Z 15008KT 19/05 A3004 RMK A01 T01910054  RH  040%=      5-min Rain = 0
KCO1 150446Z 15009KT 19/05 A3004 RMK A01 T01910054  RH  040%=      5-min Rain = 0
KCO1 150447Z 15009KT 19/05 A3004 RMK A01 T01910053  RH  040%=      5-min Rain = 0
KCO1 150448Z 14007KT 19/05 A3004 RMK A01 T01890053  RH  041%=      5-min Rain = 0
KCO1 150449Z 14007KT 19/05 A3004 RMK A01 T01890053  RH  041%=      5-min Rain = 0
KCO1 150450Z 14007KT 19/05 A3004 RMK A01 T01880052  RH  041%=      5-min Rain = 0
KCO1 150451Z 14006KT 19/05 A3004 RMK A01 T01870052  RH  041%=      5-min Rain = 0
KCO1 150452Z 14005KT 19/05 A3004 RMK A01 T01870052  RH  041%=      5-min Rain = 0
KCO1 150453Z 14006KT 19/05 A3004 RMK A01 T01860052  RH  041%=      5-min Rain = 0
KCO1 150454Z 14005KT 19/05 A3004 RMK A01 T01850051  RH  041%=      5-min Rain = 0
KCO1 150455Z 14006KT 19/05 A3004 RMK A01 T01850052  RH  041%=      5-min Rain = 0
KCO1 150456Z 14005KT 19/05 A3004 RMK A01 T01850051  RH  041%=      5-min Rain = 0
KCO1 150457Z 14006KT 18/05 A3004 RMK A01 T01840051  RH  042%=      5-min Rain = 0
KCO1 150458Z 13005KT 18/05 A3004 RMK A01 T01840051  RH  042%=      5-min Rain = 0
KCO1 150459Z 12004KT 18/05 A3004 RMK A01 T01830051  RH  042%=      5-min Rain = 0
KCO1 150500Z 12005KT 18/05 A3004 RMK A01 T01820050  RH  042%=      5-min Rain = 0
KCO1 150501Z 11004KT 18/05 A3004 RMK A01 T01820050  RH  042%=      5-min Rain = 0
KCO1 150502Z 10004KT 18/05 A3004 RMK A01 T01800050  RH  042%=      5-min Rain = 0
KCO1 150503Z 08004KT 18/05 A3004 RMK A01 T01790049  RH  042%=      5-min Rain = 0
KCO1 150504Z 07004KT 18/05 A3004 RMK A01 T01780049  RH  043%=      5-min Rain = 0
KCO1 150505Z 07004KT 18/05 A3004 RMK A01 T01760048  RH  043%=      5-min Rain = 0
KCO1 150506Z 06005KT 17/05 A3005 RMK A01 T01730047  RH  043%=      5-min Rain = 0
KCO1 150507Z 06006KT 17/05 A3004 RMK A01 T01710047  RH  044%=      5-min Rain = 0
KCO1 150508Z 06006KT 17/05 A3004 RMK A01 T01700048  RH  044%=      5-min Rain = 0
KCO1 150509Z 06006KT 17/05 A3004 RMK A01 T01690048  RH  045%=      5-min Rain = 0
KCO1 150510Z 07006KT 17/05 A3004 RMK A01 T01680048  RH  045%=      5-min Rain = 0
KCO1 150511Z 07007KT 17/05 A3004 RMK A01 T01680049  RH  045%=      5-min Rain = 0
KCO1 150512Z 07008KT 17/05 A3004 RMK A01 T01680049  RH  045%=      5-min Rain = 0
KCO1 150513Z 07007KT 17/05 A3004 RMK A01 T01680049  RH  045%=      5-min Rain = 0
KCO1 150514Z 08007KT 17/05 A3004 RMK A01 T01690049  RH  045%=      5-min Rain = 0
KCO1 150515Z 09005KT 17/05 A3005 RMK A01 T01690049  RH  045%=      5-min Rain = 0
KCO1 150516Z 08006KT 17/05 A3004 RMK A01 T01690049  RH  045%=      5-min Rain = 0
KCO1 150517Z 08007KT 17/05 A3004 RMK A01 T01690049  RH  045%=      5-min Rain = 0
KCO1 150518Z 09008KT 17/05 A3004 RMK A01 T01720050  RH  045%=      5-min Rain = 0
KCO1 150519Z 09007KT 17/05 A3004 RMK A01 T01740050  RH  044%=      5-min Rain = 0
KCO1 150520Z 10007KT 18/05 A3004 RMK A01 T01750050  RH  043%=      5-min Rain = 0
KCO1 150521Z 10007KT 18/05 A3004 RMK A01 T01750049  RH  043%=      5-min Rain = 0
KCO1 150522Z 09007KT 18/05 A3004 RMK A01 T01750049  RH  043%=      5-min Rain = 0
KCO1 150523Z 10007KT 17/05 A3004 RMK A01 T01740049  RH  044%=      5-min Rain = 0
KCO1 150524Z 09007KT 17/05 A3004 RMK A01 T01730048  RH  044%=      5-min Rain = 0
KCO1 150525Z 10007KT 17/05 A3004 RMK A01 T01730049  RH  044%=      5-min Rain = 0
KCO1 150526Z 09007KT 17/05 A3004 RMK A01 T01720048  RH  044%=      5-min Rain = 0
KCO1 150527Z 09007KT 17/05 A3004 RMK A01 T01710049  RH  044%=      5-min Rain = 0
KCO1 150528Z 09007KT 17/05 A3004 RMK A01 T01700049  RH  045%=      5-min Rain = 0
KCO1 150529Z 09007KT 17/05 A3004 RMK A01 T01700049  RH  045%=      5-min Rain = 0
KCO1 150530Z 09007KT 17/05 A3004 RMK A01 T01690049  RH  045%=      5-min Rain = 0
KCO1 150531Z 09008KT 17/05 A3004 RMK A01 T01680050  RH  046%=      5-min Rain = 0
KCO1 150532Z 09008KT 17/05 A3004 RMK A01 T01680051  RH  046%=      5-min Rain = 0
KCO1 150533Z 10008KT 17/05 A3004 RMK A01 T01670051  RH  046%=      5-min Rain = 0
KCO1 150534Z 10008KT 17/05 A3004 RMK A01 T01670052  RH  046%=      5-min Rain = 0
KCO1 150535Z 10008KT 17/05 A3004 RMK A01 T01670052  RH  047%=      5-min Rain = 0
KCO1 150536Z 10008KT 17/05 A3004 RMK A01 T01660052  RH  047%=      5-min Rain = 0
KCO1 150537Z 10008KT 17/05 A3004 RMK A01 T01650053  RH  047%=      5-min Rain = 0
KCO1 150538Z 11009KT 17/05 A3004 RMK A01 T01650053  RH  047%=      5-min Rain = 0
KCO1 150539Z 11009KT 17/05 A3004 RMK A01 T01650053  RH  047%=      5-min Rain = 0
KCO1 150540Z 11009KT 17/05 A3004 RMK A01 T01650053  RH  048%=      5-min Rain = 0
KCO1 150541Z 11009KT 17/05 A3004 RMK A01 T01650053  RH  048%=      5-min Rain = 0
KCO1 150542Z 11009KT 16/05 A3004 RMK A01 T01640053  RH  048%=      5-min Rain = 0
KCO1 150543Z 11009KT 16/05 A3004 RMK A01 T01640053  RH  048%=      5-min Rain = 0
KCO1 150544Z 11009KT 16/05 A3004 RMK A01 T01640053  RH  048%=      5-min Rain = 0
KCO1 150545Z 11009KT 16/05 A3004 RMK A01 T01630053  RH  048%=      5-min Rain = 0
KCO1 150546Z 11008KT 16/05 A3004 RMK A01 T01630053  RH  048%=      5-min Rain = 0
KCO1 150547Z 11008KT 16/05 A3004 RMK A01 T01620053  RH  048%=      5-min Rain = 0
KCO1 150548Z 11008KT 16/05 A3005 RMK A01 T01620053  RH  049%=      5-min Rain = 0
KCO1 150549Z 11008KT 16/05 A3005 RMK A01 T01610053  RH  049%=      5-min Rain = 0
KCO1 150550Z 11007KT 16/05 A3005 RMK A01 T01610054  RH  049%=      5-min Rain = 0
KCO1 150551Z 11007KT 16/06 A3005 RMK A01 T01610055  RH  049%=      5-min Rain = 0
KCO1 150552Z 10007KT 16/06 A3005 RMK A01 T01610055  RH  049%=      5-min Rain = 0
KCO1 150553Z 10006KT 16/06 A3005 RMK A01 T01610055  RH  050%=      5-min Rain = 0
KCO1 150554Z 10006KT 16/06 A3005 RMK A01 T01600055  RH  050%=      5-min Rain = 0
KCO1 150555Z 10006KT 16/06 A3005 RMK A01 T01590056  RH  050%=      5-min Rain = 0
KCO1 150556Z 10006KT 16/06 A3005 RMK A01 T01590057  RH  051%=      5-min Rain = 0
KCO1 150557Z 10006KT 16/06 A3005 RMK A01 T01580057  RH  051%=      5-min Rain = 0
KCO1 150558Z 10007KT 16/06 A3005 RMK A01 T01570057  RH  051%=      5-min Rain = 0
KCO1 150559Z 10008KT 16/06 A3005 RMK A01 T01570058  RH  052%=      5-min Rain = 0

Page generated in 0.1207 seconds.